Observation data for Claude 12 Southwest on 11/17/2019      Previous  Date       Current Mesonet Observations  Soil Data  Daily Summary Page  Observations in Plain Language
KCL1 170600Z 29003KT 10/01 A2999 RMK A01 T01000012  RH  054%=      5-min Rain = 0
KCL1 170601Z 29003KT 10/01 A2999 RMK A01 T01000013  RH  055%=      5-min Rain = 0
KCL1 170602Z 30003KT 10/01 A2999 RMK A01 T00990013  RH  055%=      5-min Rain = 0
KCL1 170603Z 31004KT 10/01 A2999 RMK A01 T00990012  RH  055%=      5-min Rain = 0
KCL1 170604Z 31004KT 10/01 A2999 RMK A01 T00980013  RH  055%=      5-min Rain = 0
KCL1 170605Z 32004KT 10/01 A2999 RMK A01 T00970013  RH  056%=      5-min Rain = 0
KCL1 170606Z 32004KT 10/01 A2999 RMK A01 T00960013  RH  056%=      5-min Rain = 0
KCL1 170607Z 32005KT 10/01 A2998 RMK A01 T00950013  RH  057%=      5-min Rain = 0
KCL1 170608Z 32005KT 09/01 A2998 RMK A01 T00940013  RH  057%=      5-min Rain = 0
KCL1 170609Z 32005KT 09/01 A2998 RMK A01 T00930013  RH  058%=      5-min Rain = 0
KCL1 170610Z 32006KT 09/01 A2998 RMK A01 T00920013  RH  058%=      5-min Rain = 0
KCL1 170611Z 33006KT 09/01 A2998 RMK A01 T00910014  RH  058%=      5-min Rain = 0
KCL1 170612Z 33006KT 09/01 A2998 RMK A01 T00910013  RH  058%=      5-min Rain = 0
KCL1 170613Z 33007KT 09/01 A2998 RMK A01 T00900014  RH  059%=      5-min Rain = 0
KCL1 170614Z 34008KT 09/01 A2998 RMK A01 T00890014  RH  059%=      5-min Rain = 0
KCL1 170615Z 34009KT 09/01 A2998 RMK A01 T00880014  RH  060%=      5-min Rain = 0
KCL1 170616Z 34008KT 09/01 A2998 RMK A01 T00860014  RH  061%=      5-min Rain = 0
KCL1 170617Z 34009KT 09/02 A2998 RMK A01 T00850015  RH  061%=      5-min Rain = 0
KCL1 170618Z 35009KT 08/02 A2998 RMK A01 T00840015  RH  062%=      5-min Rain = 0
KCL1 170619Z 35009KT 08/02 A2998 RMK A01 T00830015  RH  062%=      5-min Rain = 0
KCL1 170620Z 35009KT 08/02 A2998 RMK A01 T00810015  RH  063%=      5-min Rain = 0
KCL1 170621Z 35009KT 08/01 A2998 RMK A01 T00800014  RH  063%=      5-min Rain = 0
KCL1 170622Z 35008KT 08/02 A2997 RMK A01 T00790015  RH  064%=      5-min Rain = 0
KCL1 170623Z 35009KT 08/02 A2997 RMK A01 T00770015  RH  064%=      5-min Rain = 0
KCL1 170624Z 35010KT 08/02 A2997 RMK A01 T00760015  RH  065%=      5-min Rain = 0
KCL1 170625Z 35010KT 08/02 A2997 RMK A01 T00760015  RH  065%=      5-min Rain = 0
KCL1 170626Z 34010KT 08/02 A2997 RMK A01 T00770015  RH  065%=      5-min Rain = 0
KCL1 170627Z 35011KT 08/01 A2997 RMK A01 T00770014  RH  065%=      5-min Rain = 0
KCL1 170628Z 35010KT 08/01 A2997 RMK A01 T00770014  RH  064%=      5-min Rain = 0
KCL1 170629Z 34010KT 08/01 A2997 RMK A01 T00770014  RH  064%=      5-min Rain = 0
KCL1 170630Z 35012KT 08/01 A2997 RMK A01 T00770014  RH  064%=      5-min Rain = 0
KCL1 170631Z 34012KT 08/01 A2997 RMK A01 T00770014  RH  064%=      5-min Rain = 0
KCL1 170632Z 34012KT 08/01 A2997 RMK A01 T00770014  RH  065%=      5-min Rain = 0
KCL1 170633Z 34010KT 08/01 A2997 RMK A01 T00770014  RH  065%=      5-min Rain = 0
KCL1 170634Z 34011KT 08/01 A2997 RMK A01 T00760014  RH  065%=      5-min Rain = 0
KCL1 170635Z 35011KT 08/01 A2997 RMK A01 T00760014  RH  065%=      5-min Rain = 0
KCL1 170636Z 35012KT 08/01 A2997 RMK A01 T00760014  RH  065%=      5-min Rain = 0
KCL1 170637Z 35012KT 08/01 A2997 RMK A01 T00760014  RH  065%=      5-min Rain = 0
KCL1 170638Z 35012KT 08/01 A2997 RMK A01 T00760014  RH  065%=      5-min Rain = 0
KCL1 170639Z 35013KT 08/02 A2997 RMK A01 T00770015  RH  065%=      5-min Rain = 0
KCL1 170640Z 34012KT 08/02 A2997 RMK A01 T00770015  RH  065%=      5-min Rain = 0
KCL1 170641Z 34013KT 08/02 A2997 RMK A01 T00770015  RH  065%=      5-min Rain = 0
KCL1 170642Z 34014KT 08/02 A2997 RMK A01 T00770015  RH  064%=      5-min Rain = 0
KCL1 170643Z 34013KT 08/02 A2997 RMK A01 T00770015  RH  064%=      5-min Rain = 0
KCL1 170644Z 34013KT 08/02 A2997 RMK A01 T00780015  RH  064%=      5-min Rain = 0
KCL1 170645Z 35013KT 08/02 A2997 RMK A01 T00790015  RH  064%=      5-min Rain = 0
KCL1 170646Z 34012KT 08/02 A2997 RMK A01 T00790015  RH  064%=      5-min Rain = 0
KCL1 170647Z 34012KT 08/02 A2998 RMK A01 T00790015  RH  064%=      5-min Rain = 0
KCL1 170648Z 34012KT 08/02 A2998 RMK A01 T00780015  RH  064%=      5-min Rain = 0
KCL1 170649Z 34012KT 08/02 A2998 RMK A01 T00780015  RH  064%=      5-min Rain = 0
KCL1 170650Z 35013KT 08/02 A2998 RMK A01 T00780015  RH  064%=      5-min Rain = 0
KCL1 170651Z 35013KT 08/01 A2998 RMK A01 T00780014  RH  064%=      5-min Rain = 0
KCL1 170652Z 35012KT 08/01 A2998 RMK A01 T00780014  RH  064%=      5-min Rain = 0
KCL1 170653Z 36012KT 08/01 A2998 RMK A01 T00780014  RH  064%=      5-min Rain = 0
KCL1 170654Z 35012KT 08/01 A2998 RMK A01 T00770014  RH  064%=      5-min Rain = 0
KCL1 170655Z 36012KT 08/01 A2998 RMK A01 T00760014  RH  065%=      5-min Rain = 0
KCL1 170656Z 35012KT 08/01 A2998 RMK A01 T00760014  RH  065%=      5-min Rain = 0
KCL1 170657Z 35011KT 08/01 A2998 RMK A01 T00750014  RH  065%=      5-min Rain = 0
KCL1 170658Z 35011KT 07/01 A2998 RMK A01 T00740014  RH  066%=      5-min Rain = 0
KCL1 170659Z 35012KT 07/01 A2998 RMK A01 T00730014  RH  066%=      5-min Rain = 0
KCL1 170700Z 35012KT 07/01 A2998 RMK A01 T00730014  RH  066%=      5-min Rain = 0
KCL1 170701Z 35012KT 07/01 A2998 RMK A01 T00730014  RH  066%=      5-min Rain = 0
KCL1 170702Z 35011KT 07/01 A2998 RMK A01 T00730014  RH  066%=      5-min Rain = 0
KCL1 170703Z 34012KT 07/01 A2999 RMK A01 T00720014  RH  067%=      5-min Rain = 0
KCL1 170704Z 35012KT 07/01 A2999 RMK A01 T00720014  RH  067%=      5-min Rain = 0
KCL1 170705Z 35012KT 07/01 A2999 RMK A01 T00720014  RH  067%=      5-min Rain = 0
KCL1 170706Z 35012KT 07/01 A2998 RMK A01 T00720014  RH  067%=      5-min Rain = 0
KCL1 170707Z 35013KT 07/01 A2998 RMK A01 T00720014  RH  067%=      5-min Rain = 0
KCL1 170708Z 35012KT 07/01 A2999 RMK A01 T00710013  RH  067%=      5-min Rain = 0
KCL1 170709Z 35012KT 07/01 A2999 RMK A01 T00710014  RH  067%=      5-min Rain = 0
KCL1 170710Z 35011KT 07/01 A2999 RMK A01 T00710013  RH  067%=      5-min Rain = 0
KCL1 170711Z 34011KT 07/01 A2999 RMK A01 T00710013  RH  067%=      5-min Rain = 0
KCL1 170712Z 34011KT 07/01 A2999 RMK A01 T00710013  RH  067%=      5-min Rain = 0
KCL1 170713Z 34012KT 07/01 A2999 RMK A01 T00710013  RH  066%=      5-min Rain = 0
KCL1 170714Z 34012KT 07/01 A30 RMK A01 T00710012  RH  066%=      5-min Rain = 0
KCL1 170715Z 34012KT 07/01 A30 RMK A01 T00720013  RH  066%=      5-min Rain = 0
KCL1 170716Z 34012KT 07/01 A30 RMK A01 T00730013  RH  066%=      5-min Rain = 0
KCL1 170717Z 34012KT 07/01 A2999 RMK A01 T00740013  RH  065%=      5-min Rain = 0
KCL1 170718Z 34012KT 07/01 A2999 RMK A01 T00740013  RH  065%=      5-min Rain = 0
KCL1 170719Z 35013KT 07/01 A2999 RMK A01 T00740013  RH  065%=      5-min Rain = 0
KCL1 170720Z 34012KT 08/01 A2999 RMK A01 T00750014  RH  065%=      5-min Rain = 0
KCL1 170721Z 34014KT 08/01 A30 RMK A01 T00750013  RH  065%=      5-min Rain = 0
KCL1 170722Z 34014KT 08/01 A30 RMK A01 T00760013  RH  065%=      5-min Rain = 0
KCL1 170723Z 34014KT 08/01 A30 RMK A01 T00760013  RH  064%=      5-min Rain = 0
KCL1 170724Z 34016KT 08/01 A30 RMK A01 T00760013  RH  064%=      5-min Rain = 0
KCL1 170725Z 34016KT 08/01 A30 RMK A01 T00760012  RH  064%=      5-min Rain = 0
KCL1 170726Z 34018KT 08/01 A30 RMK A01 T00780012  RH  063%=      5-min Rain = 0
KCL1 170727Z 34017G22KT 08/01 A30 RMK A01 T00790011  RH  062%=      5-min Rain = 0
KCL1 170728Z 34019KT 08/01 A30 RMK A01 T00810010  RH  061%=      5-min Rain = 0
KCL1 170729Z 34019KT 08/01 A30 RMK A01 T00820009  RH  060%=      5-min Rain = 0
KCL1 170730Z 35017G24KT 08/01 A30 RMK A01 T00840007  RH  058%=      5-min Rain = 0
KCL1 170731Z 35020KT 09/01 A30 RMK A01 T00850006  RH  058%=      5-min Rain = 0
KCL1 170732Z 35018KT 09/01 A30 RMK A01 T00860005  RH  056%=      5-min Rain = 0
KCL1 170733Z 35018G23KT 09/00 A30 RMK A01 T00870003  RH  055%=      5-min Rain = 0
KCL1 170734Z 35022KT 09/00 A30 RMK A01 T00890002  RH  054%=      5-min Rain = 0
KCL1 170735Z 35022G27KT 09/00 A30 RMK A01 T00910000  RH  053%=      5-min Rain = 0
KCL1 170736Z 35022G27KT 09/M00 A30 RMK A01 T00931001  RH  052%=      5-min Rain = 0
KCL1 170737Z 35021G26KT 09/M00 A30 RMK A01 T00941002  RH  051%=      5-min Rain = 0
KCL1 170738Z 35019G24KT 09/M00 A30 RMK A01 T00941003  RH  051%=      5-min Rain = 0
KCL1 170739Z 35022KT 10/M01 A30 RMK A01 T00951005  RH  050%=      5-min Rain = 0
KCL1 170740Z 35020G25KT 10/M01 A30 RMK A01 T00951005  RH  049%=      5-min Rain = 0
KCL1 170741Z 35021G27KT 10/M01 A30 RMK A01 T00961006  RH  049%=      5-min Rain = 0
KCL1 170742Z 35023KT 10/M01 A30 RMK A01 T00961006  RH  049%=      5-min Rain = 0
KCL1 170743Z 35020G25KT 10/M01 A30 RMK A01 T00971007  RH  049%=      5-min Rain = 0
KCL1 170744Z 35020KT 10/M01 A3001 RMK A01 T00961006  RH  049%=      5-min Rain = 0
KCL1 170745Z 35021G29KT 10/M01 A3001 RMK A01 T00961007  RH  049%=      5-min Rain = 0
KCL1 170746Z 35020G26KT 10/M01 A3001 RMK A01 T00961007  RH  049%=      5-min Rain = 0
KCL1 170747Z 35019KT 10/M01 A3001 RMK A01 T00961007  RH  049%=      5-min Rain = 0
KCL1 170748Z 35022KT 10/M01 A3001 RMK A01 T00961008  RH  048%=      5-min Rain = 0
KCL1 170749Z 35021G26KT 10/M01 A3001 RMK A01 T00961008  RH  048%=      5-min Rain = 0
KCL1 170750Z 35022KT 10/M01 A3001 RMK A01 T00961009  RH  048%=      5-min Rain = 0
KCL1 170751Z 35018KT 10/M01 A3001 RMK A01 T00961009  RH  048%=      5-min Rain = 0
KCL1 170752Z 35020KT 10/M01 A3001 RMK A01 T00951009  RH  048%=      5-min Rain = 0
KCL1 170753Z 35018G24KT 10/M01 A3001 RMK A01 T00951009  RH  048%=      5-min Rain = 0
KCL1 170754Z 00020KT 10/M01 A3001 RMK A01 T00951009  RH  048%=      5-min Rain = 0
KCL1 170755Z 36023KT 10/M01 A3001 RMK A01 T00951010  RH  048%=      5-min Rain = 0
KCL1 170756Z 35019G27KT 10/M01 A3001 RMK A01 T00951011  RH  047%=      5-min Rain = 0
KCL1 170757Z 35023KT 10/M01 A3001 RMK A01 T00951012  RH  047%=      5-min Rain = 0
KCL1 170758Z 35022KT 10/M01 A3002 RMK A01 T00951012  RH  047%=      5-min Rain = 0
KCL1 170759Z 35020KT 10/M01 A3002 RMK A01 T00951012  RH  047%=      5-min Rain = 0
KCL1 170800Z 35023KT 10/M01 A3002 RMK A01 T00951012  RH  047%=      5-min Rain = 0
KCL1 170801Z 35019KT 10/M01 A3002 RMK A01 T00951013  RH  047%=      5-min Rain = 0
KCL1 170802Z 34020KT 10/M01 A3002 RMK A01 T00951013  RH  047%=      5-min Rain = 0
KCL1 170803Z 35021G26KT 10/M01 A3002 RMK A01 T00951013  RH  047%=      5-min Rain = 0
KCL1 170804Z 35020G26KT 10/M01 A3002 RMK A01 T00951013  RH  047%=      5-min Rain = 0
KCL1 170805Z 35022KT 10/M01 A3002 RMK A01 T00951014  RH  047%=      5-min Rain = 0
KCL1 170806Z 35020G27KT 10/M01 A3002 RMK A01 T00951014  RH  047%=      5-min Rain = 0
KCL1 170807Z 35024KT 09/M02 A3002 RMK A01 T00941015  RH  047%=      5-min Rain = 0
KCL1 170808Z 35023G28KT 09/M02 A3002 RMK A01 T00941015  RH  046%=      5-min Rain = 0
KCL1 170809Z 35020G25KT 10/M02 A3002 RMK A01 T00951015  RH  046%=      5-min Rain = 0
KCL1 170810Z 35020G28KT 10/M02 A3002 RMK A01 T00951015  RH  046%=      5-min Rain = 0
KCL1 170811Z 35025KT 09/M02 A3002 RMK A01 T00941016  RH  046%=      5-min Rain = 0
KCL1 170812Z 36021KT 10/M02 A3002 RMK A01 T00951016  RH  046%=      5-min Rain = 0
KCL1 170813Z 35021G26KT 10/M02 A3002 RMK A01 T00951016  RH  046%=      5-min Rain = 0
KCL1 170814Z 35020KT 10/M02 A3002 RMK A01 T00951016  RH  046%=      5-min Rain = 0
KCL1 170815Z 35021KT 09/M02 A3002 RMK A01 T00941016  RH  046%=      5-min Rain = 0
KCL1 170816Z 35023KT 09/M02 A3002 RMK A01 T00941016  RH  046%=      5-min Rain = 0
KCL1 170817Z 35019G24KT 09/M02 A3002 RMK A01 T00941016  RH  046%=      5-min Rain = 0
KCL1 170818Z 35021G27KT 09/M02 A3003 RMK A01 T00931016  RH  046%=      5-min Rain = 0
KCL1 170819Z 35023G29KT 09/M02 A3003 RMK A01 T00931016  RH  046%=      5-min Rain = 0
KCL1 170820Z 35022G27KT 09/M02 A3003 RMK A01 T00931016  RH  046%=      5-min Rain = 0
KCL1 170821Z 35022G27KT 09/M02 A3003 RMK A01 T00941016  RH  046%=      5-min Rain = 0
KCL1 170822Z 35020G27KT 09/M02 A3003 RMK A01 T00931016  RH  046%=      5-min Rain = 0
KCL1 170823Z 35022G27KT 09/M02 A3003 RMK A01 T00931016  RH  046%=      5-min Rain = 0
KCL1 170824Z 35021G27KT 09/M02 A3003 RMK A01 T00931016  RH  046%=      5-min Rain = 0
KCL1 170825Z 36019G25KT 09/M02 A3003 RMK A01 T00931016  RH  047%=      5-min Rain = 0
KCL1 170826Z 35020G25KT 09/M02 A3003 RMK A01 T00921016  RH  047%=      5-min Rain = 0
KCL1 170827Z 35021G26KT 09/M02 A3004 RMK A01 T00921016  RH  047%=      5-min Rain = 0
KCL1 170828Z 35021KT 09/M02 A3004 RMK A01 T00921016  RH  047%=      5-min Rain = 0
KCL1 170829Z 35021G28KT 09/M02 A3004 RMK A01 T00921016  RH  047%=      5-min Rain = 0
KCL1 170830Z 35023G29KT 09/M02 A3004 RMK A01 T00921016  RH  047%=      5-min Rain = 0
KCL1 170831Z 35022G27KT 09/M02 A3004 RMK A01 T00911016  RH  047%=      5-min Rain = 0
KCL1 170832Z 35021G28KT 09/M02 A3004 RMK A01 T00911016  RH  047%=      5-min Rain = 0
KCL1 170833Z 35021KT 09/M02 A3004 RMK A01 T00911015  RH  047%=      5-min Rain = 0
KCL1 170834Z 35023G29KT 09/M02 A3004 RMK A01 T00911015  RH  047%=      5-min Rain = 0
KCL1 170835Z 36020G28KT 09/M02 A3004 RMK A01 T00911015  RH  047%=      5-min Rain = 0
KCL1 170836Z 35026KT 09/M02 A3004 RMK A01 T00911015  RH  047%=      5-min Rain = 0
KCL1 170837Z 35021G26KT 09/M02 A3004 RMK A01 T00901015  RH  047%=      5-min Rain = 0
KCL1 170838Z 35020KT 09/M02 A3004 RMK A01 T00901015  RH  048%=      5-min Rain = 0
KCL1 170839Z 35022G30KT 09/M02 A3004 RMK A01 T00891015  RH  048%=      5-min Rain = 0
KCL1 170840Z 35021G27KT 09/M02 A3004 RMK A01 T00891015  RH  048%=      5-min Rain = 0
KCL1 170841Z 35025KT 09/M02 A3004 RMK A01 T00891015  RH  048%=      5-min Rain = 0
KCL1 170842Z 35024G30KT 09/M02 A3004 RMK A01 T00891015  RH  048%=      5-min Rain = 0
KCL1 170843Z 35020G27KT 09/M02 A3004 RMK A01 T00891015  RH  048%=      5-min Rain = 0
KCL1 170844Z 35021G26KT 09/M02 A3004 RMK A01 T00881015  RH  048%=      5-min Rain = 0
KCL1 170845Z 35021G27KT 09/M02 A3004 RMK A01 T00881015  RH  049%=      5-min Rain = 0
KCL1 170846Z 36021G29KT 09/M02 A3005 RMK A01 T00871015  RH  049%=      5-min Rain = 0
KCL1 170847Z 36024KT 09/M02 A3005 RMK A01 T00871015  RH  049%=      5-min Rain = 0
KCL1 170848Z 35019G24KT 09/M01 A3005 RMK A01 T00871014  RH  049%=      5-min Rain = 0
KCL1 170849Z 36021KT 09/M01 A3005 RMK A01 T00871014  RH  049%=      5-min Rain = 0
KCL1 170850Z 35023G30KT 09/M01 A3005 RMK A01 T00861014  RH  049%=      5-min Rain = 0
KCL1 170851Z 36024G31KT 09/M01 A3005 RMK A01 T00861014  RH  050%=      5-min Rain = 0
KCL1 170852Z 35019G24KT 09/M01 A3005 RMK A01 T00861014  RH  050%=      5-min Rain = 0
KCL1 170853Z 36020G25KT 09/M01 A3005 RMK A01 T00851013  RH  050%=      5-min Rain = 0
KCL1 170854Z 35022KT 09/M01 A3005 RMK A01 T00851013  RH  050%=      5-min Rain = 0
KCL1 170855Z 35022G27KT 08/M01 A3005 RMK A01 T00841013  RH  050%=      5-min Rain = 0
KCL1 170856Z 36020G26KT 08/M01 A3005 RMK A01 T00841013  RH  051%=      5-min Rain = 0
KCL1 170857Z 00021G26KT 08/M01 A3005 RMK A01 T00831013  RH  051%=      5-min Rain = 0
KCL1 170858Z 36020KT 08/M01 A3005 RMK A01 T00831012  RH  051%=      5-min Rain = 0
KCL1 170859Z 36021KT 08/M01 A3005 RMK A01 T00831013  RH  051%=      5-min Rain = 0
KCL1 170900Z 36020G25KT 08/M01 A3005 RMK A01 T00831012  RH  051%=      5-min Rain = 0
KCL1 170901Z 36017G22KT 08/M01 A3005 RMK A01 T00821012  RH  051%=      5-min Rain = 0
KCL1 170902Z 35022KT 08/M01 A3005 RMK A01 T00821012  RH  052%=      5-min Rain = 0
KCL1 170903Z 36017G22KT 08/M01 A3005 RMK A01 T00811012  RH  052%=      5-min Rain = 0
KCL1 170904Z 35021KT 08/M01 A3005 RMK A01 T00821011  RH  052%=      5-min Rain = 0
KCL1 170905Z 36022KT 08/M01 A3005 RMK A01 T00811011  RH  052%=      5-min Rain = 0
KCL1 170906Z 36021KT 08/M01 A3005 RMK A01 T00811011  RH  052%=      5-min Rain = 0
KCL1 170907Z 35019G25KT 08/M01 A3005 RMK A01 T00811011  RH  052%=      5-min Rain = 0
KCL1 170908Z 35022KT 08/M01 A3005 RMK A01 T00811010  RH  053%=      5-min Rain = 0
KCL1 170909Z 35022G27KT 08/M01 A3005 RMK A01 T00811010  RH  053%=      5-min Rain = 0
KCL1 170910Z 35022G28KT 08/M01 A3005 RMK A01 T00811010  RH  053%=      5-min Rain = 0
KCL1 170911Z 35019G24KT 08/M01 A3005 RMK A01 T00811009  RH  053%=      5-min Rain = 0
KCL1 170912Z 35021KT 08/M01 A3005 RMK A01 T00801009  RH  053%=      5-min Rain = 0
KCL1 170913Z 35019G24KT 08/M01 A3005 RMK A01 T00801009  RH  054%=      5-min Rain = 0
KCL1 170914Z 36021G27KT 08/M01 A3005 RMK A01 T00791009  RH  054%=      5-min Rain = 0
KCL1 170915Z 36020KT 08/M01 A3005 RMK A01 T00791009  RH  054%=      5-min Rain = 0
KCL1 170916Z 36024G30KT 08/M01 A3005 RMK A01 T00791009  RH  054%=      5-min Rain = 0
KCL1 170917Z 36023G29KT 08/M01 A3005 RMK A01 T00801008  RH  054%=      5-min Rain = 0
KCL1 170918Z 36022G27KT 08/M01 A3005 RMK A01 T00801009  RH  054%=      5-min Rain = 0
KCL1 170919Z 36024G29KT 08/M01 A3005 RMK A01 T00801009  RH  054%=      5-min Rain = 0
KCL1 170920Z 35020G25KT 08/M01 A3005 RMK A01 T00801009  RH  054%=      5-min Rain = 0
KCL1 170921Z 36021G28KT 08/M01 A3005 RMK A01 T00801009  RH  054%=      5-min Rain = 0
KCL1 170922Z 00021KT 08/M01 A3005 RMK A01 T00791009  RH  054%=      5-min Rain = 0
KCL1 170923Z 00023KT 08/M01 A3005 RMK A01 T00791009  RH  054%=      5-min Rain = 0
KCL1 170924Z 00022KT 08/M01 A3004 RMK A01 T00791008  RH  054%=      5-min Rain = 0
KCL1 170925Z 36022G28KT 08/M01 A3005 RMK A01 T00791008  RH  054%=      5-min Rain = 0
KCL1 170926Z 00022G28KT 08/M01 A3005 RMK A01 T00791008  RH  054%=      5-min Rain = 0
KCL1 170927Z 00024G29KT 08/M01 A3005 RMK A01 T00791008  RH  054%=      5-min Rain = 0
KCL1 170928Z 36021G27KT 08/M01 A3005 RMK A01 T00791008  RH  054%=      5-min Rain = 0
KCL1 170929Z 01022KT 08/M01 A3005 RMK A01 T00791008  RH  054%=      5-min Rain = 0
KCL1 170930Z 00022G28KT 08/M01 A3005 RMK A01 T00781008  RH  054%=      5-min Rain = 0
KCL1 170931Z 00020G25KT 08/M01 A3005 RMK A01 T00781008  RH  055%=      5-min Rain = 0
KCL1 170932Z 36020G25KT 08/M01 A3005 RMK A01 T00771008  RH  055%=      5-min Rain = 0
KCL1 170933Z 00019G25KT 08/M01 A3005 RMK A01 T00771008  RH  055%=      5-min Rain = 0
KCL1 170934Z 00022KT 08/M01 A3005 RMK A01 T00771008  RH  055%=      5-min Rain = 0
KCL1 170935Z 35023G28KT 08/M01 A3005 RMK A01 T00761007  RH  055%=      5-min Rain = 0
KCL1 170936Z 36023KT 08/M01 A3005 RMK A01 T00761007  RH  055%=      5-min Rain = 0
KCL1 170937Z 36020G25KT 08/M01 A3005 RMK A01 T00771007  RH  056%=      5-min Rain = 0
KCL1 170938Z 36021KT 08/M01 A3006 RMK A01 T00761007  RH  056%=      5-min Rain = 0
KCL1 170939Z 35020G25KT 08/M01 A3005 RMK A01 T00751007  RH  056%=      5-min Rain = 0
KCL1 170940Z 36022G27KT 08/M01 A3006 RMK A01 T00751007  RH  056%=      5-min Rain = 0
KCL1 170941Z 36021KT 08/M01 A3005 RMK A01 T00751006  RH  056%=      5-min Rain = 0
KCL1 170942Z 36022G28KT 08/M01 A3005 RMK A01 T00751007  RH  056%=      5-min Rain = 0
KCL1 170943Z 36021G27KT 08/M01 A3005 RMK A01 T00751006  RH  056%=      5-min Rain = 0
KCL1 170944Z 00021G26KT 07/M01 A3006 RMK A01 T00741007  RH  057%=      5-min Rain = 0
KCL1 170945Z 00022G27KT 07/M01 A3006 RMK A01 T00741006  RH  057%=      5-min Rain = 0
KCL1 170946Z 00019KT 07/M01 A3006 RMK A01 T00741006  RH  057%=      5-min Rain = 0
KCL1 170947Z 36019G24KT 07/M01 A3006 RMK A01 T00731006  RH  057%=      5-min Rain = 0
KCL1 170948Z 00022KT 07/M01 A3006 RMK A01 T00731006  RH  057%=      5-min Rain = 0
KCL1 170949Z 00019G25KT 07/M01 A3006 RMK A01 T00731006  RH  057%=      5-min Rain = 0
KCL1 170950Z 00019KT 07/M01 A3005 RMK A01 T00731006  RH  057%=      5-min Rain = 0
KCL1 170951Z 36023KT 07/M01 A3006 RMK A01 T00731006  RH  057%=      5-min Rain = 0
KCL1 170952Z 00020KT 07/M01 A3006 RMK A01 T00721006  RH  057%=      5-min Rain = 0
KCL1 170953Z 36018KT 07/M01 A3006 RMK A01 T00721006  RH  058%=      5-min Rain = 0
KCL1 170954Z 36019G24KT 07/M01 A3006 RMK A01 T00711006  RH  058%=      5-min Rain = 0
KCL1 170955Z 00020KT 07/M01 A3006 RMK A01 T00711006  RH  058%=      5-min Rain = 0
KCL1 170956Z 36021KT 07/M01 A3006 RMK A01 T00711006  RH  058%=      5-min Rain = 0
KCL1 170957Z 36019KT 07/M01 A3006 RMK A01 T00711006  RH  058%=      5-min Rain = 0
KCL1 170958Z 00021KT 07/M01 A3006 RMK A01 T00711006  RH  058%=      5-min Rain = 0
KCL1 170959Z 00021KT 07/M01 A3006 RMK A01 T00701005  RH  059%=      5-min Rain = 0
KCL1 171000Z 36018G24KT 07/M01 A3006 RMK A01 T00701005  RH  059%=      5-min Rain = 0
KCL1 171001Z 00021KT 07/M01 A3006 RMK A01 T00701005  RH  059%=      5-min Rain = 0
KCL1 171002Z 36019G24KT 07/M01 A3006 RMK A01 T00701005  RH  059%=      5-min Rain = 0
KCL1 171003Z 36019G25KT 07/M01 A3006 RMK A01 T00691005  RH  059%=      5-min Rain = 0
KCL1 171004Z 00019KT 07/M01 A3006 RMK A01 T00691005  RH  059%=      5-min Rain = 0
KCL1 171005Z 36020KT 07/M01 A3006 RMK A01 T00691005  RH  059%=      5-min Rain = 0
KCL1 171006Z 36020KT 07/M01 A3006 RMK A01 T00691005  RH  059%=      5-min Rain = 0
KCL1 171007Z 00022KT 07/M00 A3006 RMK A01 T00691004  RH  060%=      5-min Rain = 0
KCL1 171008Z 36019KT 07/M00 A3006 RMK A01 T00691004  RH  060%=      5-min Rain = 0
KCL1 171009Z 00020G25KT 07/M00 A3006 RMK A01 T00681004  RH  060%=      5-min Rain = 0
KCL1 171010Z 36020KT 07/M00 A3006 RMK A01 T00681004  RH  060%=      5-min Rain = 0
KCL1 171011Z 36021G27KT 07/M00 A3006 RMK A01 T00681004  RH  060%=      5-min Rain = 0
KCL1 171012Z 36021G27KT 07/M00 A3007 RMK A01 T00681004  RH  060%=      5-min Rain = 0
KCL1 171013Z 36017KT 07/M00 A3007 RMK A01 T00681004  RH  060%=      5-min Rain = 0
KCL1 171014Z 35021G26KT 07/M00 A3007 RMK A01 T00671004  RH  061%=      5-min Rain = 0
KCL1 171015Z 36018G23KT 07/M00 A3006 RMK A01 T00671003  RH  061%=      5-min Rain = 0
KCL1 171016Z 36020KT 07/M00 A3007 RMK A01 T00671003  RH  061%=      5-min Rain = 0
KCL1 171017Z 36019G27KT 07/M00 A3007 RMK A01 T00671003  RH  061%=      5-min Rain = 0
KCL1 171018Z 36019G25KT 07/M00 A3007 RMK A01 T00661003  RH  061%=      5-min Rain = 0
KCL1 171019Z 36016G22KT 07/M00 A3007 RMK A01 T00661003  RH  061%=      5-min Rain = 0
KCL1 171020Z 36021G26KT 07/M00 A3007 RMK A01 T00661003  RH  061%=      5-min Rain = 0
KCL1 171021Z 36022KT 07/M00 A3007 RMK A01 T00661003  RH  061%=      5-min Rain = 0
KCL1 171022Z 36020KT 07/M00 A3006 RMK A01 T00661003  RH  061%=      5-min Rain = 0
KCL1 171023Z 36017G23KT 07/M00 A3007 RMK A01 T00661003  RH  061%=      5-min Rain = 0
KCL1 171024Z 36020KT 07/M00 A3007 RMK A01 T00661003  RH  062%=      5-min Rain = 0
KCL1 171025Z 36017KT 07/M00 A3007 RMK A01 T00661003  RH  062%=      5-min Rain = 0
KCL1 171026Z 36020KT 07/M00 A3007 RMK A01 T00661002  RH  062%=      5-min Rain = 0
KCL1 171027Z 00021G28KT 07/M00 A3007 RMK A01 T00651002  RH  062%=      5-min Rain = 0
KCL1 171028Z 35020G25KT 07/M00 A3007 RMK A01 T00651002  RH  062%=      5-min Rain = 0
KCL1 171029Z 00021G26KT 07/M00 A3007 RMK A01 T00651002  RH  062%=      5-min Rain = 0
KCL1 171030Z 36019G25KT 07/M00 A3007 RMK A01 T00661002  RH  062%=      5-min Rain = 0
KCL1 171031Z 36016KT 07/M00 A3007 RMK A01 T00651002  RH  062%=      5-min Rain = 0
KCL1 171032Z 00020KT 06/M00 A3007 RMK A01 T00641002  RH  062%=      5-min Rain = 0
KCL1 171033Z 00021G26KT 07/M00 A3007 RMK A01 T00651002  RH  063%=      5-min Rain = 0
KCL1 171034Z 00019G24KT 07/M00 A3007 RMK A01 T00651002  RH  063%=      5-min Rain = 0
KCL1 171035Z 36023G28KT 06/M00 A3007 RMK A01 T00641001  RH  063%=      5-min Rain = 0
KCL1 171036Z 00019G24KT 06/M00 A3007 RMK A01 T00641001  RH  063%=      5-min Rain = 0
KCL1 171037Z 36023G28KT 06/M00 A3007 RMK A01 T00641001  RH  063%=      5-min Rain = 0
KCL1 171038Z 36021KT 06/M00 A3008 RMK A01 T00641001  RH  063%=      5-min Rain = 0
KCL1 171039Z 00021KT 07/M00 A3007 RMK A01 T00651001  RH  063%=      5-min Rain = 0
KCL1 171040Z 00022G27KT 07/M00 A3007 RMK A01 T00651001  RH  063%=      5-min Rain = 0
KCL1 171041Z 00020G25KT 07/M00 A3008 RMK A01 T00651001  RH  063%=      5-min Rain = 0
KCL1 171042Z 36019G25KT 06/M00 A3008 RMK A01 T00641001  RH  063%=      5-min Rain = 0
KCL1 171043Z 01017G25KT 06/M00 A3008 RMK A01 T00641001  RH  063%=      5-min Rain = 0
KCL1 171044Z 36020G25KT 06/00 A3008 RMK A01 T006400-0  RH  064%=      5-min Rain = 0
KCL1 171045Z 00023KT 06/00 A3008 RMK A01 T006300-0  RH  064%=      5-min Rain = 0
KCL1 171046Z 36019G24KT 06/00 A3008 RMK A01 T006300-0  RH  064%=      5-min Rain = 0
KCL1 171047Z 00018G23KT 06/00 A3008 RMK A01 T006300-0  RH  064%=      5-min Rain = 0
KCL1 171048Z 36021KT 06/00 A3008 RMK A01 T00630000  RH  064%=      5-min Rain = 0
KCL1 171049Z 36020G27KT 06/00 A3008 RMK A01 T00630001  RH  064%=      5-min Rain = 0
KCL1 171050Z 36020G27KT 06/00 A3008 RMK A01 T00630000  RH  064%=      5-min Rain = 0
KCL1 171051Z 36021KT 06/00 A3008 RMK A01 T00630000  RH  064%=      5-min Rain = 0
KCL1 171052Z 00022KT 06/00 A3008 RMK A01 T00630001  RH  064%=      5-min Rain = 0
KCL1 171053Z 36022KT 06/00 A3008 RMK A01 T00630001  RH  064%=      5-min Rain = 0
KCL1 171054Z 35018G23KT 06/00 A3008 RMK A01 T00630001  RH  064%=      5-min Rain = 0
KCL1 171055Z 36016KT 06/00 A3008 RMK A01 T00630001  RH  064%=      5-min Rain = 0
KCL1 171056Z 36020G26KT 06/00 A3008 RMK A01 T00630001  RH  065%=      5-min Rain = 0
KCL1 171057Z 00019G24KT 06/00 A3008 RMK A01 T00620001  RH  065%=      5-min Rain = 0
KCL1 171058Z 36022KT 06/00 A3009 RMK A01 T00620001  RH  065%=      5-min Rain = 0
KCL1 171059Z 36018G23KT 06/00 A3009 RMK A01 T00630002  RH  065%=      5-min Rain = 0
KCL1 171100Z 36021G26KT 06/00 A3009 RMK A01 T00630002  RH  065%=      5-min Rain = 0
KCL1 171101Z 00020KT 06/00 A3009 RMK A01 T00630002  RH  065%=      5-min Rain = 0
KCL1 171102Z 00019G25KT 06/00 A3009 RMK A01 T00620002  RH  065%=      5-min Rain = 0
KCL1 171103Z 36019G24KT 06/00 A3009 RMK A01 T00630002  RH  065%=      5-min Rain = 0
KCL1 171104Z 36020G25KT 06/00 A3009 RMK A01 T00620002  RH  065%=      5-min Rain = 0
KCL1 171105Z 00019KT 06/00 A3009 RMK A01 T00630002  RH  065%=      5-min Rain = 0
KCL1 171106Z 00018G23KT 06/00 A3009 RMK A01 T00620002  RH  065%=      5-min Rain = 0
KCL1 171107Z 36022G27KT 06/00 A3009 RMK A01 T00620002  RH  066%=      5-min Rain = 0
KCL1 171108Z 00019G26KT 06/00 A301 RMK A01 T00620002  RH  066%=      5-min Rain = 0
KCL1 171109Z 36020G25KT 06/00 A301 RMK A01 T00620002  RH  066%=      5-min Rain = 0
KCL1 171110Z 00022G27KT 06/00 A301 RMK A01 T00620002  RH  066%=      5-min Rain = 0
KCL1 171111Z 36017G23KT 06/00 A301 RMK A01 T00620003  RH  066%=      5-min Rain = 0
KCL1 171112Z 36017G24KT 06/00 A301 RMK A01 T00620002  RH  066%=      5-min Rain = 0
KCL1 171113Z 00019G24KT 06/00 A3009 RMK A01 T00610002  RH  066%=      5-min Rain = 0
KCL1 171114Z 36022KT 06/00 A3009 RMK A01 T00610002  RH  066%=      5-min Rain = 0
KCL1 171115Z 36018KT 06/00 A3009 RMK A01 T00610002  RH  066%=      5-min Rain = 0
KCL1 171116Z 36020G26KT 06/00 A3009 RMK A01 T00610002  RH  066%=      5-min Rain = 0
KCL1 171117Z 00017G23KT 06/00 A301 RMK A01 T00610002  RH  066%=      5-min Rain = 0
KCL1 171118Z 36022G28KT 06/00 A301 RMK A01 T00600002  RH  066%=      5-min Rain = 0
KCL1 171119Z 36017KT 06/00 A301 RMK A01 T00600002  RH  066%=      5-min Rain = 0
KCL1 171120Z 36019KT 06/00 A301 RMK A01 T00600002  RH  066%=      5-min Rain = 0
KCL1 171121Z 36019KT 06/00 A301 RMK A01 T00600002  RH  066%=      5-min Rain = 0
KCL1 171122Z 35020G25KT 06/00 A301 RMK A01 T00600002  RH  066%=      5-min Rain = 0
KCL1 171123Z 36018KT 06/00 A301 RMK A01 T00600002  RH  066%=      5-min Rain = 0
KCL1 171124Z 36021G29KT 06/00 A301 RMK A01 T00590002  RH  067%=      5-min Rain = 0
KCL1 171125Z 36021G27KT 06/00 A301 RMK A01 T00600003  RH  067%=      5-min Rain = 0
KCL1 171126Z 36021G28KT 06/00 A301 RMK A01 T00590002  RH  067%=      5-min Rain = 0
KCL1 171127Z 36023KT 06/00 A301 RMK A01 T00600002  RH  067%=      5-min Rain = 0
KCL1 171128Z 35019G24KT 06/00 A301 RMK A01 T00590002  RH  067%=      5-min Rain = 0
KCL1 171129Z 36022G28KT 06/00 A301 RMK A01 T00590002  RH  067%=      5-min Rain = 0
KCL1 171130Z 00021G26KT 06/00 A301 RMK A01 T00590002  RH  067%=      5-min Rain = 0
KCL1 171131Z 35020KT 06/00 A301 RMK A01 T00590002  RH  067%=      5-min Rain = 0
KCL1 171132Z 36019KT 06/00 A301 RMK A01 T00590001  RH  067%=      5-min Rain = 0
KCL1 171133Z 00023G28KT 06/00 A301 RMK A01 T00590002  RH  067%=      5-min Rain = 0
KCL1 171134Z 36024G29KT 06/00 A301 RMK A01 T00590002  RH  067%=      5-min Rain = 0
KCL1 171135Z 36021G26KT 06/00 A301 RMK A01 T00590002  RH  067%=      5-min Rain = 0
KCL1 171136Z 36020KT 06/00 A301 RMK A01 T00590001  RH  067%=      5-min Rain = 0
KCL1 171137Z 36019G24KT 06/00 A301 RMK A01 T00590001  RH  067%=      5-min Rain = 0
KCL1 171138Z 35019KT 06/00 A3011 RMK A01 T00580002  RH  067%=      5-min Rain = 0
KCL1 171139Z 35019G24KT 06/00 A3011 RMK A01 T00580002  RH  067%=      5-min Rain = 0
KCL1 171140Z 00022KT 06/00 A3011 RMK A01 T00570002  RH  068%=      5-min Rain = 0
KCL1 171141Z 36020G27KT 06/00 A3011 RMK A01 T00570002  RH  068%=      5-min Rain = 0
KCL1 171142Z 35018KT 06/00 A3011 RMK A01 T00580002  RH  068%=      5-min Rain = 0
KCL1 171143Z 36020G26KT 06/00 A3011 RMK A01 T00570002  RH  068%=      5-min Rain = 0
KCL1 171144Z 36018G23KT 06/00 A3011 RMK A01 T00570002  RH  068%=      5-min Rain = 0
KCL1 171145Z 36021G26KT 06/00 A3011 RMK A01 T00570002  RH  068%=      5-min Rain = 0
KCL1 171146Z 35019G24KT 06/00 A3011 RMK A01 T00560002  RH  068%=      5-min Rain = 0
KCL1 171147Z 36022G28KT 06/00 A3011 RMK A01 T00560002  RH  068%=      5-min Rain = 0
KCL1 171148Z 36020G25KT 06/00 A3011 RMK A01 T00560002  RH  068%=      5-min Rain = 0
KCL1 171149Z 36019G24KT 06/00 A3011 RMK A01 T00560002  RH  068%=      5-min Rain = 0
KCL1 171150Z 36022KT 06/00 A3011 RMK A01 T00560002  RH  068%=      5-min Rain = 0
KCL1 171151Z 36019KT 06/00 A3012 RMK A01 T00560002  RH  068%=      5-min Rain = 0
KCL1 171152Z 36020KT 06/00 A3012 RMK A01 T00560002  RH  068%=      5-min Rain = 0
KCL1 171153Z 35017G22KT 06/00 A3012 RMK A01 T00560002  RH  068%=      5-min Rain = 0
KCL1 171154Z 36023KT 06/00 A3012 RMK A01 T00550002  RH  068%=      5-min Rain = 0
KCL1 171155Z 36023KT 06/00 A3012 RMK A01 T00550002  RH  069%=      5-min Rain = 0
KCL1 171156Z 35020G25KT 06/00 A3012 RMK A01 T00550002  RH  068%=      5-min Rain = 0
KCL1 171157Z 35020G26KT 06/00 A3012 RMK A01 T00550002  RH  069%=      5-min Rain = 0
KCL1 171158Z 35019G24KT 06/00 A3012 RMK A01 T00550002  RH  069%=      5-min Rain = 0
KCL1 171159Z 36019KT 06/00 A3012 RMK A01 T00550002  RH  069%=      5-min Rain = 0
KCL1 171200Z 35021G26KT 05/00 A3012 RMK A01 T00540002  RH  069%=      5-min Rain = 0
KCL1 171201Z 36020KT 05/00 A3012 RMK A01 T00540002  RH  069%=      5-min Rain = 0
KCL1 171202Z 35021KT 05/00 A3012 RMK A01 T00540002  RH  069%=      5-min Rain = 0
KCL1 171203Z 36019KT 05/00 A3012 RMK A01 T00540002  RH  069%=      5-min Rain = 0
KCL1 171204Z 35020KT 05/00 A3012 RMK A01 T00540002  RH  069%=      5-min Rain = 0
KCL1 171205Z 36018G25KT 05/00 A3012 RMK A01 T00530002  RH  069%=      5-min Rain = 0
KCL1 171206Z 35019G25KT 05/00 A3013 RMK A01 T00530001  RH  069%=      5-min Rain = 0
KCL1 171207Z 36018KT 05/00 A3013 RMK A01 T00530002  RH  070%=      5-min Rain = 0
KCL1 171208Z 36020KT 05/00 A3013 RMK A01 T00530002  RH  070%=      5-min Rain = 0
KCL1 171209Z 35019G24KT 05/00 A3013 RMK A01 T00520002  RH  070%=      5-min Rain = 0
KCL1 171210Z 36022KT 05/00 A3013 RMK A01 T00520002  RH  070%=      5-min Rain = 0
KCL1 171211Z 35018KT 05/00 A3013 RMK A01 T00520002  RH  070%=      5-min Rain = 0
KCL1 171212Z 35019G25KT 05/00 A3013 RMK A01 T00520001  RH  070%=      5-min Rain = 0
KCL1 171213Z 35019KT 05/00 A3013 RMK A01 T00520002  RH  070%=      5-min Rain = 0
KCL1 171214Z 35020KT 05/00 A3013 RMK A01 T00510001  RH  070%=      5-min Rain = 0
KCL1 171215Z 35022G27KT 05/00 A3013 RMK A01 T00510002  RH  070%=      5-min Rain = 0
KCL1 171216Z 35019G24KT 05/00 A3013 RMK A01 T00510002  RH  070%=      5-min Rain = 0
KCL1 171217Z 36018G25KT 05/00 A3013 RMK A01 T00510001  RH  070%=      5-min Rain = 0
KCL1 171218Z 35020G25KT 05/00 A3013 RMK A01 T00510002  RH  070%=      5-min Rain = 0
KCL1 171219Z 35018KT 05/00 A3013 RMK A01 T00510002  RH  070%=      5-min Rain = 0
KCL1 171220Z 36019G24KT 05/00 A3013 RMK A01 T00510002  RH  071%=      5-min Rain = 0
KCL1 171221Z 35019G24KT 05/00 A3013 RMK A01 T00510002  RH  071%=      5-min Rain = 0
KCL1 171222Z 36019KT 05/00 A3013 RMK A01 T00510002  RH  071%=      5-min Rain = 0
KCL1 171223Z 36018KT 05/00 A3013 RMK A01 T00500001  RH  071%=      5-min Rain = 0
KCL1 171224Z 36022KT 05/00 A3013 RMK A01 T00500002  RH  071%=      5-min Rain = 0
KCL1 171225Z 36018G24KT 05/00 A3013 RMK A01 T00500002  RH  071%=      5-min Rain = 0
KCL1 171226Z 36020G25KT 05/00 A3013 RMK A01 T00500001  RH  071%=      5-min Rain = 0
KCL1 171227Z 36019KT 05/00 A3013 RMK A01 T00510002  RH  071%=      5-min Rain = 0
KCL1 171228Z 36023KT 05/00 A3013 RMK A01 T00510002  RH  071%=      5-min Rain = 0
KCL1 171229Z 36022KT 05/00 A3013 RMK A01 T00510002  RH  071%=      5-min Rain = 0
KCL1 171230Z 36020G25KT 05/00 A3013 RMK A01 T00510002  RH  070%=      5-min Rain = 0
KCL1 171231Z 36019G24KT 05/00 A3013 RMK A01 T00500001  RH  071%=      5-min Rain = 0
KCL1 171232Z 36020G25KT 05/00 A3013 RMK A01 T00500001  RH  071%=      5-min Rain = 0
KCL1 171233Z 35021KT 05/00 A3013 RMK A01 T00500001  RH  071%=      5-min Rain = 0
KCL1 171234Z 35020KT 05/00 A3013 RMK A01 T00500001  RH  071%=      5-min Rain = 0
KCL1 171235Z 36019G27KT 05/00 A3013 RMK A01 T00500001  RH  071%=      5-min Rain = 0
KCL1 171236Z 35021KT 05/00 A3013 RMK A01 T00500002  RH  071%=      5-min Rain = 0
KCL1 171237Z 36020KT 05/00 A3013 RMK A01 T00500001  RH  071%=      5-min Rain = 0
KCL1 171238Z 36022G27KT 05/00 A3013 RMK A01 T00500001  RH  071%=      5-min Rain = 0
KCL1 171239Z 36021G26KT 05/00 A3014 RMK A01 T00500002  RH  071%=      5-min Rain = 0
KCL1 171240Z 35021G26KT 05/00 A3014 RMK A01 T00500002  RH  071%=      5-min Rain = 0
KCL1 171241Z 35020G25KT 05/00 A3014 RMK A01 T00490001  RH  071%=      5-min Rain = 0
KCL1 171242Z 35017KT 05/00 A3014 RMK A01 T00490001  RH  071%=      5-min Rain = 0
KCL1 171243Z 35020KT 05/00 A3014 RMK A01 T00480001  RH  071%=      5-min Rain = 0
KCL1 171244Z 35018KT 05/00 A3014 RMK A01 T00480001  RH  072%=      5-min Rain = 0
KCL1 171245Z 35018KT 05/00 A3014 RMK A01 T00480001  RH  072%=      5-min Rain = 0
KCL1 171246Z 35017G23KT 05/00 A3014 RMK A01 T00470001  RH  072%=      5-min Rain = 0
KCL1 171247Z 36021KT 05/00 A3014 RMK A01 T00470001  RH  072%=      5-min Rain = 0
KCL1 171248Z 36020KT 05/00 A3014 RMK A01 T00470001  RH  072%=      5-min Rain = 0
KCL1 171249Z 36020KT 05/00 A3014 RMK A01 T00470001  RH  072%=      5-min Rain = 0
KCL1 171250Z 35019KT 05/00 A3014 RMK A01 T00470001  RH  072%=      5-min Rain = 0
KCL1 171251Z 35017KT 05/00 A3014 RMK A01 T00470001  RH  072%=      5-min Rain = 0
KCL1 171252Z 35021G26KT 05/00 A3014 RMK A01 T00460001  RH  072%=      5-min Rain = 0
KCL1 171253Z 35018G23KT 05/00 A3014 RMK A01 T00460001  RH  073%=      5-min Rain = 0
KCL1 171254Z 35016KT 05/00 A3014 RMK A01 T00460001  RH  073%=      5-min Rain = 0
KCL1 171255Z 00018KT 05/00 A3014 RMK A01 T00450001  RH  073%=      5-min Rain = 0
KCL1 171256Z 36017G22KT 05/00 A3014 RMK A01 T00450001  RH  073%=      5-min Rain = 0
KCL1 171257Z 35019KT 05/00 A3014 RMK A01 T00450001  RH  073%=      5-min Rain = 0
KCL1 171258Z 35019KT 05/00 A3014 RMK A01 T00450001  RH  073%=      5-min Rain = 0
KCL1 171259Z 36021KT 05/00 A3014 RMK A01 T00450001  RH  073%=      5-min Rain = 0
KCL1 171300Z 36021KT 05/00 A3014 RMK A01 T00450001  RH  073%=      5-min Rain = 0
KCL1 171301Z 35020KT 05/00 A3014 RMK A01 T00450001  RH  073%=      5-min Rain = 0
KCL1 171302Z 36017G22KT 05/00 A3014 RMK A01 T00450001  RH  073%=      5-min Rain = 0
KCL1 171303Z 36018G23KT 05/00 A3015 RMK A01 T00450001  RH  073%=      5-min Rain = 0
KCL1 171304Z 36020KT 04/00 A3015 RMK A01 T00440001  RH  074%=      5-min Rain = 0
KCL1 171305Z 36018KT 04/00 A3015 RMK A01 T00440001  RH  074%=      5-min Rain = 0
KCL1 171306Z 36019KT 04/00 A3014 RMK A01 T00440001  RH  074%=      5-min Rain = 0
KCL1 171307Z 36020KT 04/00 A3014 RMK A01 T00440001  RH  074%=      5-min Rain = 0
KCL1 171308Z 36019KT 04/00 A3014 RMK A01 T00440001  RH  074%=      5-min Rain = 0
KCL1 171309Z 36019KT 04/00 A3015 RMK A01 T00440001  RH  074%=      5-min Rain = 0
KCL1 171310Z 36019G25KT 04/00 A3015 RMK A01 T00440001  RH  074%=      5-min Rain = 0
KCL1 171311Z 36019KT 04/00 A3015 RMK A01 T00440001  RH  074%=      5-min Rain = 0
KCL1 171312Z 36021KT 04/00 A3015 RMK A01 T00440001  RH  074%=      5-min Rain = 0
KCL1 171313Z 36020KT 04/00 A3015 RMK A01 T00440001  RH  074%=      5-min Rain = 0
KCL1 171314Z 35019KT 04/00 A3015 RMK A01 T00440001  RH  074%=      5-min Rain = 0
KCL1 171315Z 36021KT 04/00 A3015 RMK A01 T00440002  RH  074%=      5-min Rain = 0
KCL1 171316Z 36018G23KT 04/00 A3015 RMK A01 T00440002  RH  074%=      5-min Rain = 0
KCL1 171317Z 36018KT 04/00 A3015 RMK A01 T00440001  RH  074%=      5-min Rain = 0
KCL1 171318Z 36018KT 04/00 A3015 RMK A01 T00440001  RH  074%=      5-min Rain = 0
KCL1 171319Z 36019KT 04/00 A3015 RMK A01 T00430001  RH  074%=      5-min Rain = 0
KCL1 171320Z 35019KT 04/00 A3015 RMK A01 T00430002  RH  074%=      5-min Rain = 0
KCL1 171321Z 36019KT 04/00 A3015 RMK A01 T00430002  RH  074%=      5-min Rain = 0
KCL1 171322Z 36018G23KT 04/00 A3015 RMK A01 T00430002  RH  074%=      5-min Rain = 0
KCL1 171323Z 36018KT 04/00 A3015 RMK A01 T00430002  RH  074%=      5-min Rain = 0
KCL1 171324Z 36016KT 04/00 A3015 RMK A01 T00430002  RH  075%=      5-min Rain = 0
KCL1 171325Z 36017KT 04/00 A3015 RMK A01 T00430002  RH  075%=      5-min Rain = 0
KCL1 171326Z 35016G22KT 04/00 A3015 RMK A01 T00430002  RH  075%=      5-min Rain = 0
KCL1 171327Z 35018G23KT 04/00 A3015 RMK A01 T00420002  RH  075%=      5-min Rain = 0
KCL1 171328Z 35017G23KT 04/00 A3015 RMK A01 T00420002  RH  075%=      5-min Rain = 0
KCL1 171329Z 35020KT 04/00 A3015 RMK A01 T00420002  RH  075%=      5-min Rain = 0
KCL1 171330Z 36018G23KT 04/00 A3015 RMK A01 T00420002  RH  075%=      5-min Rain = 0
KCL1 171331Z 36019KT 04/00 A3015 RMK A01 T00420002  RH  075%=      5-min Rain = 0
KCL1 171332Z 36019KT 04/00 A3015 RMK A01 T00420002  RH  075%=      5-min Rain = 0
KCL1 171333Z 36020KT 04/00 A3015 RMK A01 T00430003  RH  075%=      5-min Rain = 0
KCL1 171334Z 36018KT 04/00 A3015 RMK A01 T00420003  RH  075%=      5-min Rain = 0
KCL1 171335Z 35019KT 04/00 A3015 RMK A01 T00420003  RH  075%=      5-min Rain = 0
KCL1 171336Z 36017KT 04/00 A3015 RMK A01 T00430003  RH  075%=      5-min Rain = 0
KCL1 171337Z 36019KT 04/00 A3015 RMK A01 T00420003  RH  076%=      5-min Rain = 0
KCL1 171338Z 35018KT 04/00 A3015 RMK A01 T00420003  RH  076%=      5-min Rain = 0
KCL1 171339Z 36018KT 04/00 A3015 RMK A01 T00420004  RH  076%=      5-min Rain = 0
KCL1 171340Z 35019KT 04/00 A3015 RMK A01 T00420004  RH  076%=      5-min Rain = 0
KCL1 171341Z 35020KT 04/00 A3015 RMK A01 T00420004  RH  076%=      5-min Rain = 0
KCL1 171342Z 35017KT 04/00 A3015 RMK A01 T00420004  RH  076%=      5-min Rain = 0
KCL1 171343Z 35019G24KT 04/00 A3015 RMK A01 T00420004  RH  076%=      5-min Rain = 0
KCL1 171344Z 35019KT 04/01 A3016 RMK A01 T00420005  RH  076%=      5-min Rain = 0
KCL1 171345Z 35016KT 04/01 A3016 RMK A01 T00430005  RH  077%=      5-min Rain = 0
KCL1 171346Z 35017KT 04/01 A3016 RMK A01 T00420005  RH  077%=      5-min Rain = 0
KCL1 171347Z 35015KT 04/01 A3016 RMK A01 T00420005  RH  077%=      5-min Rain = 0
KCL1 171348Z 35017G22KT 04/01 A3016 RMK A01 T00420005  RH  077%=      5-min Rain = 0
KCL1 171349Z 35019KT 04/01 A3016 RMK A01 T00420006  RH  077%=      5-min Rain = 0
KCL1 171350Z 35014G20KT 04/01 A3016 RMK A01 T00420006  RH  077%=      5-min Rain = 0
KCL1 171351Z 35017G22KT 04/01 A3016 RMK A01 T00420006  RH  077%=      5-min Rain = 0
KCL1 171352Z 35016KT 04/01 A3016 RMK A01 T00430007  RH  077%=      5-min Rain = 0
KCL1 171353Z 35015KT 04/01 A3016 RMK A01 T00430007  RH  077%=      5-min Rain = 0
KCL1 171354Z 35018KT 04/01 A3016 RMK A01 T00430007  RH  077%=      5-min Rain = 0
KCL1 171355Z 35018G23KT 04/01 A3016 RMK A01 T00430007  RH  077%=      5-min Rain = 0
KCL1 171356Z 35017G22KT 04/01 A3016 RMK A01 T00440008  RH  077%=      5-min Rain = 0
KCL1 171357Z 35016KT 04/01 A3016 RMK A01 T00440008  RH  077%=      5-min Rain = 0
KCL1 171358Z 35018KT 04/01 A3016 RMK A01 T00440008  RH  077%=      5-min Rain = 0
KCL1 171359Z 35014G20KT 05/01 A3016 RMK A01 T00450009  RH  078%=      5-min Rain = 0
KCL1 171400Z 35013KT 05/01 A3016 RMK A01 T00450010  RH  078%=      5-min Rain = 0
KCL1 171401Z 35016G23KT 05/01 A3017 RMK A01 T00450009  RH  078%=      5-min Rain = 0
KCL1 171402Z 35017KT 05/01 A3017 RMK A01 T00450010  RH  078%=      5-min Rain = 0
KCL1 171403Z 35013KT 05/01 A3017 RMK A01 T00460010  RH  078%=      5-min Rain = 0
KCL1 171404Z 35018KT 05/01 A3017 RMK A01 T00460010  RH  078%=      5-min Rain = 0
KCL1 171405Z 35020G25KT 05/01 A3017 RMK A01 T00460011  RH  078%=      5-min Rain = 0
KCL1 171406Z 34016KT 05/01 A3017 RMK A01 T00470011  RH  078%=      5-min Rain = 0
KCL1 171407Z 35015KT 05/01 A3017 RMK A01 T00470011  RH  077%=      5-min Rain = 0
KCL1 171408Z 35017KT 05/01 A3017 RMK A01 T00470011  RH  077%=      5-min Rain = 0
KCL1 171409Z 34016G21KT 05/01 A3017 RMK A01 T00470011  RH  077%=      5-min Rain = 0
KCL1 171410Z 34017G22KT 05/01 A3017 RMK A01 T00480012  RH  077%=      5-min Rain = 0
KCL1 171411Z 35017KT 05/01 A3017 RMK A01 T00480012  RH  077%=      5-min Rain = 0
KCL1 171412Z 34015KT 05/01 A3017 RMK A01 T00480012  RH  077%=      5-min Rain = 0
KCL1 171413Z 35014KT 05/01 A3017 RMK A01 T00490013  RH  077%=      5-min Rain = 0
KCL1 171414Z 35018G24KT 05/01 A3017 RMK A01 T00490012  RH  077%=      5-min Rain = 0
KCL1 171415Z 35016KT 05/01 A3017 RMK A01 T00490013  RH  077%=      5-min Rain = 0
KCL1 171416Z 34014KT 05/01 A3017 RMK A01 T00500013  RH  077%=      5-min Rain = 0
KCL1 171417Z 34016KT 05/01 A3017 RMK A01 T00500013  RH  077%=      5-min Rain = 0
KCL1 171418Z 34017KT 05/01 A3017 RMK A01 T00500013  RH  077%=      5-min Rain = 0
KCL1 171419Z 35014G20KT 05/01 A3017 RMK A01 T00500013  RH  077%=      5-min Rain = 0
KCL1 171420Z 35015G20KT 05/01 A3017 RMK A01 T00510013  RH  077%=      5-min Rain = 0
KCL1 171421Z 35016G21KT 05/01 A3017 RMK A01 T00510013  RH  077%=      5-min Rain = 0
KCL1 171422Z 35015G20KT 05/01 A3017 RMK A01 T00510014  RH  077%=      5-min Rain = 0
KCL1 171423Z 34015KT 05/01 A3017 RMK A01 T00520014  RH  077%=      5-min Rain = 0
KCL1 171424Z 34018KT 05/01 A3017 RMK A01 T00520014  RH  076%=      5-min Rain = 0
KCL1 171425Z 34015KT 05/01 A3017 RMK A01 T00520014  RH  076%=      5-min Rain = 0
KCL1 171426Z 34014KT 05/01 A3017 RMK A01 T00530014  RH  076%=      5-min Rain = 0
KCL1 171427Z 35015KT 05/01 A3017 RMK A01 T00530014  RH  076%=      5-min Rain = 0
KCL1 171428Z 35015KT 05/01 A3017 RMK A01 T00530014  RH  076%=      5-min Rain = 0
KCL1 171429Z 35014KT 05/02 A3017 RMK A01 T00530015  RH  076%=      5-min Rain = 0
KCL1 171430Z 34012KT 05/02 A3017 RMK A01 T00540015  RH  076%=      5-min Rain = 0
KCL1 171431Z 34014G19KT 05/02 A3018 RMK A01 T00540015  RH  076%=      5-min Rain = 0
KCL1 171432Z 34012KT 06/02 A3018 RMK A01 T00550015  RH  076%=      5-min Rain = 0
KCL1 171433Z 34011KT 06/02 A3018 RMK A01 T00550015  RH  076%=      5-min Rain = 0
KCL1 171434Z 34013KT 06/02 A3018 RMK A01 T00560016  RH  075%=      5-min Rain = 0
KCL1 171435Z 34016KT 06/02 A3018 RMK A01 T00560016  RH  075%=      5-min Rain = 0
KCL1 171436Z 34015KT 06/02 A3018 RMK A01 T00560016  RH  075%=      5-min Rain = 0
KCL1 171437Z 34013KT 06/02 A3018 RMK A01 T00570016  RH  075%=      5-min Rain = 0
KCL1 171438Z 35016KT 06/02 A3018 RMK A01 T00570016  RH  075%=      5-min Rain = 0
KCL1 171439Z 35015KT 06/02 A3018 RMK A01 T00580016  RH  075%=      5-min Rain = 0
KCL1 171440Z 36015KT 06/02 A3018 RMK A01 T00580016  RH  074%=      5-min Rain = 0
KCL1 171441Z 35016G21KT 06/02 A3018 RMK A01 T00580016  RH  074%=      5-min Rain = 0
KCL1 171442Z 34013G19KT 06/02 A3018 RMK A01 T00590016  RH  074%=      5-min Rain = 0
KCL1 171443Z 35012KT 06/02 A3018 RMK A01 T00600017  RH  074%=      5-min Rain = 0
KCL1 171444Z 35011G16KT 06/02 A3018 RMK A01 T00600017  RH  074%=      5-min Rain = 0
KCL1 171445Z 35014KT 06/02 A3018 RMK A01 T00610017  RH  073%=      5-min Rain = 0
KCL1 171446Z 35011KT 06/02 A3018 RMK A01 T00610017  RH  073%=      5-min Rain = 0
KCL1 171447Z 35013G19KT 06/02 A3018 RMK A01 T00620017  RH  073%=      5-min Rain = 0
KCL1 171448Z 34015KT 06/02 A3018 RMK A01 T00620016  RH  073%=      5-min Rain = 0
KCL1 171449Z 35017KT 06/02 A3018 RMK A01 T00620016  RH  072%=      5-min Rain = 0
KCL1 171450Z 35014KT 06/02 A3019 RMK A01 T00620016  RH  072%=      5-min Rain = 0
KCL1 171451Z 35015KT 06/02 A3019 RMK A01 T00630017  RH  072%=      5-min Rain = 0
KCL1 171452Z 35011KT 06/02 A3019 RMK A01 T00640017  RH  072%=      5-min Rain = 0
KCL1 171453Z 35012G17KT 06/02 A3019 RMK A01 T00640017  RH  072%=      5-min Rain = 0
KCL1 171454Z 35017KT 07/02 A3019 RMK A01 T00650017  RH  071%=      5-min Rain = 0
KCL1 171455Z 35017G22KT 07/02 A3019 RMK A01 T00650016  RH  071%=      5-min Rain = 0
KCL1 171456Z 35018KT 07/02 A3019 RMK A01 T00650016  RH  071%=      5-min Rain = 0
KCL1 171457Z 36016KT 06/02 A3019 RMK A01 T00640016  RH  071%=      5-min Rain = 0
KCL1 171458Z 36017KT 07/02 A3019 RMK A01 T00650016  RH  071%=      5-min Rain = 0
KCL1 171459Z 35016KT 07/02 A3019 RMK A01 T00650016  RH  071%=      5-min Rain = 0
KCL1 171500Z 36016KT 07/02 A3019 RMK A01 T00650016  RH  071%=      5-min Rain = 0
KCL1 171501Z 35014KT 07/02 A3018 RMK A01 T00660016  RH  070%=      5-min Rain = 0
KCL1 171502Z 35017KT 07/02 A3018 RMK A01 T00660016  RH  070%=      5-min Rain = 0
KCL1 171503Z 36015KT 07/02 A3018 RMK A01 T00660016  RH  070%=      5-min Rain = 0
KCL1 171504Z 00013KT 07/02 A3019 RMK A01 T00670016  RH  070%=      5-min Rain = 0
KCL1 171505Z 36019KT 07/02 A3019 RMK A01 T00670016  RH  070%=      5-min Rain = 0
KCL1 171506Z 35015KT 07/02 A3018 RMK A01 T00670015  RH  069%=      5-min Rain = 0
KCL1 171507Z 36013G18KT 07/02 A3019 RMK A01 T00670015  RH  070%=      5-min Rain = 0
KCL1 171508Z 36016KT 07/02 A3019 RMK A01 T00680016  RH  069%=      5-min Rain = 0
KCL1 171509Z 00015KT 07/02 A3019 RMK A01 T00680015  RH  069%=      5-min Rain = 0
KCL1 171510Z 00014KT 07/02 A3019 RMK A01 T00690016  RH  069%=      5-min Rain = 0
KCL1 171511Z 00013G18KT 07/02 A3019 RMK A01 T00690016  RH  069%=      5-min Rain = 0
KCL1 171512Z 35014KT 07/02 A3019 RMK A01 T00700016  RH  069%=      5-min Rain = 0
KCL1 171513Z 36016KT 07/02 A3019 RMK A01 T00710016  RH  068%=      5-min Rain = 0
KCL1 171514Z 00016KT 07/02 A3019 RMK A01 T00710015  RH  068%=      5-min Rain = 0
KCL1 171515Z 00014KT 07/02 A3019 RMK A01 T00700015  RH  068%=      5-min Rain = 0
KCL1 171516Z 35015KT 07/02 A3019 RMK A01 T00700016  RH  068%=      5-min Rain = 0
KCL1 171517Z 00016KT 07/02 A3019 RMK A01 T00710015  RH  068%=      5-min Rain = 0
KCL1 171518Z 01013G18KT 07/02 A3019 RMK A01 T00710015  RH  068%=      5-min Rain = 0
KCL1 171519Z 01014KT 07/02 A3019 RMK A01 T00710015  RH  068%=      5-min Rain = 0
KCL1 171520Z 36013G18KT 07/02 A3019 RMK A01 T00720016  RH  068%=      5-min Rain = 0
KCL1 171521Z 35013G18KT 07/02 A3019 RMK A01 T00730017  RH  067%=      5-min Rain = 0
KCL1 171522Z 01013KT 07/02 A3019 RMK A01 T00740017  RH  067%=      5-min Rain = 0
KCL1 171523Z 01013KT 07/02 A3019 RMK A01 T00740016  RH  066%=      5-min Rain = 0
KCL1 171524Z 36015KT 07/02 A3019 RMK A01 T00740016  RH  066%=      5-min Rain = 0
KCL1 171525Z 00014KT 07/02 A3019 RMK A01 T00740015  RH  066%=      5-min Rain = 0
KCL1 171526Z 00016G21KT 07/02 A3019 RMK A01 T00740016  RH  066%=      5-min Rain = 0
KCL1 171527Z 00016KT 08/02 A3019 RMK A01 T00750015  RH  066%=      5-min Rain = 0
KCL1 171528Z 36015KT 07/02 A3019 RMK A01 T00740016  RH  066%=      5-min Rain = 0
KCL1 171529Z 00013KT 08/02 A3019 RMK A01 T00750016  RH  066%=      5-min Rain = 0
KCL1 171530Z 00013KT 08/02 A3019 RMK A01 T00760016  RH  066%=      5-min Rain = 0
KCL1 171531Z 00013KT 08/02 A3019 RMK A01 T00760016  RH  066%=      5-min Rain = 0
KCL1 171532Z 35013G18KT 08/02 A3019 RMK A01 T00780017  RH  066%=      5-min Rain = 0
KCL1 171533Z 00015G20KT 08/02 A302 RMK A01 T00790016  RH  065%=      5-min Rain = 0
KCL1 171534Z 35016KT 08/02 A302 RMK A01 T00780015  RH  064%=      5-min Rain = 0
KCL1 171535Z 01012KT 08/02 A302 RMK A01 T00770015  RH  065%=      5-min Rain = 0
KCL1 171536Z 01016KT 08/02 A302 RMK A01 T00780015  RH  065%=      5-min Rain = 0
KCL1 171537Z 01016KT 08/02 A302 RMK A01 T00780015  RH  065%=      5-min Rain = 0
KCL1 171538Z 00014KT 08/02 A302 RMK A01 T00770015  RH  065%=      5-min Rain = 0
KCL1 171539Z 00013KT 08/02 A302 RMK A01 T00770015  RH  065%=      5-min Rain = 0
KCL1 171540Z 36014G20KT 08/02 A302 RMK A01 T00790016  RH  064%=      5-min Rain = 0
KCL1 171541Z 00017KT 08/02 A302 RMK A01 T00790015  RH  064%=      5-min Rain = 0
KCL1 171542Z 01014KT 08/01 A302 RMK A01 T00780014  RH  064%=      5-min Rain = 0
KCL1 171543Z 01014KT 08/01 A302 RMK A01 T00780014  RH  064%=      5-min Rain = 0
KCL1 171544Z 01015KT 08/02 A302 RMK A01 T00800015  RH  064%=      5-min Rain = 0
KCL1 171545Z 01014KT 08/01 A302 RMK A01 T00800014  RH  063%=      5-min Rain = 0
KCL1 171546Z 00014KT 08/01 A302 RMK A01 T00790013  RH  063%=      5-min Rain = 0
KCL1 171547Z 00014KT 08/01 A3019 RMK A01 T00790013  RH  063%=      5-min Rain = 0
KCL1 171548Z 00014KT 08/01 A3019 RMK A01 T00790014  RH  063%=      5-min Rain = 0
KCL1 171549Z 01014KT 08/01 A302 RMK A01 T00800014  RH  063%=      5-min Rain = 0
KCL1 171550Z 00016KT 08/01 A3019 RMK A01 T00800014  RH  063%=      5-min Rain = 0
KCL1 171551Z 01016KT 08/01 A3019 RMK A01 T00800013  RH  062%=      5-min Rain = 0
KCL1 171552Z 00013KT 08/01 A3019 RMK A01 T00810013  RH  062%=      5-min Rain = 0
KCL1 171553Z 01014KT 08/01 A3019 RMK A01 T00820013  RH  062%=      5-min Rain = 0
KCL1 171554Z 00011G16KT 08/01 A3019 RMK A01 T00830013  RH  061%=      5-min Rain = 0
KCL1 171555Z 01016KT 09/01 A3019 RMK A01 T00850014  RH  061%=      5-min Rain = 0
KCL1 171556Z 00017KT 08/01 A3019 RMK A01 T00840012  RH  060%=      5-min Rain = 0
KCL1 171557Z 01015KT 08/01 A3019 RMK A01 T00830011  RH  060%=      5-min Rain = 0
KCL1 171558Z 01014KT 08/01 A3019 RMK A01 T00830012  RH  061%=      5-min Rain = 0
KCL1 171559Z 00014KT 08/01 A3019 RMK A01 T00840013  RH  061%=      5-min Rain = 0
KCL1 171600Z 02012G17KT 09/01 A3019 RMK A01 T00850014  RH  061%=      5-min Rain = 0
KCL1 171601Z 00012G18KT 09/01 A3019 RMK A01 T00870014  RH  061%=      5-min Rain = 0
KCL1 171602Z 01012G17KT 09/01 A3019 RMK A01 T00880014  RH  060%=      5-min Rain = 0
KCL1 171603Z 01014G19KT 09/01 A3019 RMK A01 T00890013  RH  059%=      5-min Rain = 0
KCL1 171604Z 01016KT 09/01 A3019 RMK A01 T00890012  RH  059%=      5-min Rain = 0
KCL1 171605Z 02015KT 09/01 A3019 RMK A01 T00880012  RH  059%=      5-min Rain = 0
KCL1 171606Z 00011KT 09/01 A3019 RMK A01 T00880012  RH  059%=      5-min Rain = 0
KCL1 171607Z 01013G18KT 09/01 A3019 RMK A01 T00900014  RH  059%=      5-min Rain = 0
KCL1 171608Z 01014KT 09/01 A3019 RMK A01 T00900012  RH  058%=      5-min Rain = 0
KCL1 171609Z 02013KT 09/01 A3019 RMK A01 T00900011  RH  058%=      5-min Rain = 0
KCL1 171610Z 01015KT 09/01 A3019 RMK A01 T00890009  RH  058%=      5-min Rain = 0
KCL1 171611Z 01012G17KT 09/01 A3019 RMK A01 T00880010  RH  058%=      5-min Rain = 0
KCL1 171612Z 01014KT 09/01 A3019 RMK A01 T00890010  RH  057%=      5-min Rain = 0
KCL1 171613Z 01014KT 09/01 A3019 RMK A01 T00890010  RH  057%=      5-min Rain = 0
KCL1 171614Z 02015KT 09/01 A3019 RMK A01 T00900009  RH  057%=      5-min Rain = 0
KCL1 171615Z 02016KT 09/01 A3019 RMK A01 T00890008  RH  057%=      5-min Rain = 0
KCL1 171616Z 02013KT 09/01 A3019 RMK A01 T00890008  RH  057%=      5-min Rain = 0
KCL1 171617Z 02014KT 09/01 A3019 RMK A01 T00890008  RH  057%=      5-min Rain = 0
KCL1 171618Z 01015KT 09/01 A3019 RMK A01 T00900009  RH  057%=      5-min Rain = 0
KCL1 171619Z 02012G17KT 09/01 A3019 RMK A01 T00900008  RH  057%=      5-min Rain = 0
KCL1 171620Z 01012KT 09/01 A3019 RMK A01 T00900008  RH  057%=      5-min Rain = 0
KCL1 171621Z 01014KT 09/01 A3019 RMK A01 T00900010  RH  057%=      5-min Rain = 0
KCL1 171622Z 01014KT 09/01 A3019 RMK A01 T00910009  RH  056%=      5-min Rain = 0
KCL1 171623Z 01010KT 09/01 A3019 RMK A01 T00900009  RH  057%=      5-min Rain = 0
KCL1 171624Z 02010KT 09/01 A3019 RMK A01 T00910012  RH  058%=      5-min Rain = 0
KCL1 171625Z 02012KT 09/01 A3019 RMK A01 T00940013  RH  057%=      5-min Rain = 0
KCL1 171626Z 35014KT 10/01 A3019 RMK A01 T00950013  RH  056%=      5-min Rain = 0
KCL1 171627Z 36012KT 09/01 A3019 RMK A01 T00940012  RH  056%=      5-min Rain = 0
KCL1 171628Z 00013KT 09/01 A3019 RMK A01 T00940012  RH  057%=      5-min Rain = 0
KCL1 171629Z 01012KT 09/01 A302 RMK A01 T00940013  RH  057%=      5-min Rain = 0
KCL1 171630Z 01013KT 09/01 A302 RMK A01 T00940013  RH  057%=      5-min Rain = 0
KCL1 171631Z 01014KT 09/01 A302 RMK A01 T00930011  RH  056%=      5-min Rain = 0
KCL1 171632Z 02011G16KT 09/01 A302 RMK A01 T00930011  RH  057%=      5-min Rain = 0
KCL1 171633Z 01012KT 09/01 A302 RMK A01 T00930011  RH  056%=      5-min Rain = 0
KCL1 171634Z 01011KT 09/01 A3019 RMK A01 T00930010  RH  056%=      5-min Rain = 0
KCL1 171635Z 01010KT 09/01 A3019 RMK A01 T00920011  RH  057%=      5-min Rain = 0
KCL1 171636Z 03010KT 09/01 A3019 RMK A01 T00940013  RH  057%=      5-min Rain = 0
KCL1 171637Z 01011KT 10/01 A3019 RMK A01 T00950013  RH  057%=      5-min Rain = 0
KCL1 171638Z 36011KT 10/01 A3019 RMK A01 T00960013  RH  056%=      5-min Rain = 0
KCL1 171639Z 02012KT 10/01 A3019 RMK A01 T00960013  RH  056%=      5-min Rain = 0
KCL1 171640Z 01010KT 10/01 A3019 RMK A01 T00960013  RH  056%=      5-min Rain = 0
KCL1 171641Z 36012KT 10/01 A3019 RMK A01 T00960012  RH  056%=      5-min Rain = 0
KCL1 171642Z 36013KT 10/01 A3019 RMK A01 T00950012  RH  056%=      5-min Rain = 0
KCL1 171643Z 36012KT 10/01 A3019 RMK A01 T00960013  RH  056%=      5-min Rain = 0
KCL1 171644Z 35013KT 10/01 A3019 RMK A01 T00960013  RH  056%=      5-min Rain = 0
KCL1 171645Z 36010KT 10/01 A3019 RMK A01 T00960013  RH  056%=      5-min Rain = 0
KCL1 171646Z 35008KT 10/01 A3019 RMK A01 T00950012  RH  056%=      5-min Rain = 0
KCL1 171647Z 34008G14KT 10/01 A3019 RMK A01 T00950013  RH  057%=      5-min Rain = 0
KCL1 171648Z 36013KT 10/02 A3019 RMK A01 T00970015  RH  056%=      5-min Rain = 0
KCL1 171649Z 35011KT 10/01 A3019 RMK A01 T00980014  RH  056%=      5-min Rain = 0
KCL1 171650Z 02011KT 10/01 A3019 RMK A01 T00980014  RH  056%=      5-min Rain = 0
KCL1 171651Z 00009G14KT 10/01 A3019 RMK A01 T00980014  RH  056%=      5-min Rain = 0
KCL1 171652Z 35013KT 10/02 A3019 RMK A01 T00990015  RH  056%=      5-min Rain = 0
KCL1 171653Z 35012KT 10/01 A3019 RMK A01 T00990014  RH  056%=      5-min Rain = 0
KCL1 171654Z 35013KT 10/01 A3019 RMK A01 T01000014  RH  055%=      5-min Rain = 0
KCL1 171655Z 35014KT 10/02 A3019 RMK A01 T01000015  RH  056%=      5-min Rain = 0
KCL1 171656Z 36013KT 10/01 A3019 RMK A01 T00990014  RH  056%=      5-min Rain = 0
KCL1 171657Z 00009KT 10/01 A3019 RMK A01 T00990014  RH  056%=      5-min Rain = 0
KCL1 171658Z 00010KT 10/02 A3019 RMK A01 T01000016  RH  056%=      5-min Rain = 0
KCL1 171659Z 01011KT 10/02 A3019 RMK A01 T01020016  RH  055%=      5-min Rain = 0
KCL1 171700Z 00013KT 10/02 A3019 RMK A01 T01030016  RH  055%=      5-min Rain = 0
KCL1 171701Z 00014KT 10/02 A3019 RMK A01 T01040015  RH  054%=      5-min Rain = 0
KCL1 171702Z 00010KT 10/01 A3019 RMK A01 T01020014  RH  054%=      5-min Rain = 0
KCL1 171703Z 00012KT 10/02 A3019 RMK A01 T01020015  RH  055%=      5-min Rain = 0
KCL1 171704Z 35010KT 10/02 A3019 RMK A01 T01010015  RH  055%=      5-min Rain = 0
KCL1 171705Z 35008KT 10/01 A3019 RMK A01 T00980014  RH  056%=      5-min Rain = 0
KCL1 171706Z 34007KT 10/02 A3019 RMK A01 T00990016  RH  056%=      5-min Rain = 0
KCL1 171707Z 01012G17KT 10/02 A3019 RMK A01 T01000017  RH  056%=      5-min Rain = 0
KCL1 171708Z 36013KT 10/02 A3019 RMK A01 T01010015  RH  055%=      5-min Rain = 0
KCL1 171709Z 36010KT 10/02 A3019 RMK A01 T01010016  RH  056%=      5-min Rain = 0
KCL1 171710Z 01013KT 10/02 A3019 RMK A01 T01020016  RH  055%=      5-min Rain = 0
KCL1 171711Z 01010KT 10/02 A3019 RMK A01 T01020015  RH  055%=      5-min Rain = 0
KCL1 171712Z 01012KT 10/02 A3019 RMK A01 T01030016  RH  055%=      5-min Rain = 0
KCL1 171713Z 01011KT 10/02 A3019 RMK A01 T01040017  RH  055%=      5-min Rain = 0
KCL1 171714Z 00013KT 10/02 A3019 RMK A01 T01040015  RH  054%=      5-min Rain = 0
KCL1 171715Z 01011KT 10/01 A3019 RMK A01 T01020014  RH  054%=      5-min Rain = 0
KCL1 171716Z 00010KT 10/01 A3019 RMK A01 T01010014  RH  055%=      5-min Rain = 0
KCL1 171717Z 02011KT 10/02 A3019 RMK A01 T01010015  RH  055%=      5-min Rain = 0
KCL1 171718Z 01012KT 10/02 A3019 RMK A01 T01030015  RH  055%=      5-min Rain = 0
KCL1 171719Z 01014KT 10/02 A3019 RMK A01 T01040016  RH  054%=      5-min Rain = 0
KCL1 171720Z 01013KT 10/02 A3019 RMK A01 T01040016  RH  054%=      5-min Rain = 0
KCL1 171721Z 00011KT 10/02 A3019 RMK A01 T01020015  RH  055%=      5-min Rain = 0
KCL1 171722Z 35011KT 10/02 A3019 RMK A01 T01020015  RH  055%=      5-min Rain = 0
KCL1 171723Z 35011KT 10/02 A3019 RMK A01 T01030015  RH  055%=      5-min Rain = 0
KCL1 171724Z 01010KT 10/02 A3019 RMK A01 T01030016  RH  055%=      5-min Rain = 0
KCL1 171725Z 01013KT 10/02 A3019 RMK A01 T01040016  RH  054%=      5-min Rain = 0
KCL1 171726Z 02011KT 11/02 A3019 RMK A01 T01050016  RH  054%=      5-min Rain = 0
KCL1 171727Z 02011KT 11/02 A3019 RMK A01 T01070017  RH  054%=      5-min Rain = 0
KCL1 171728Z 35012KT 11/02 A3019 RMK A01 T01080017  RH  053%=      5-min Rain = 0
KCL1 171729Z 36011KT 11/02 A3019 RMK A01 T01090016  RH  053%=      5-min Rain = 0
KCL1 171730Z 01013KT 11/02 A302 RMK A01 T01080015  RH  052%=      5-min Rain = 0
KCL1 171731Z 00011KT 11/02 A3019 RMK A01 T01070015  RH  053%=      5-min Rain = 0
KCL1 171732Z 00015KT 11/02 A302 RMK A01 T01080016  RH  053%=      5-min Rain = 0
KCL1 171733Z 35012KT 11/02 A302 RMK A01 T01080015  RH  053%=      5-min Rain = 0
KCL1 171734Z 36012KT 11/02 A302 RMK A01 T01070015  RH  053%=      5-min Rain = 0
KCL1 171735Z 35011KT 11/02 A3019 RMK A01 T01090017  RH  053%=      5-min Rain = 0
KCL1 171736Z 36013KT 11/02 A3019 RMK A01 T01100016  RH  052%=      5-min Rain = 0
KCL1 171737Z 01010KT 11/02 A3019 RMK A01 T01080015  RH  052%=      5-min Rain = 0
KCL1 171738Z 02013KT 11/02 A3019 RMK A01 T01080016  RH  053%=      5-min Rain = 0
KCL1 171739Z 00013KT 11/02 A3019 RMK A01 T01090015  RH  052%=      5-min Rain = 0
KCL1 171740Z 00012KT 11/02 A3019 RMK A01 T01080015  RH  053%=      5-min Rain = 0
KCL1 171741Z 00012KT 11/02 A3019 RMK A01 T01070015  RH  053%=      5-min Rain = 0
KCL1 171742Z 35011KT 11/02 A3019 RMK A01 T01080016  RH  053%=      5-min Rain = 0
KCL1 171743Z 01009G14KT 11/02 A3019 RMK A01 T01090016  RH  053%=      5-min Rain = 0
KCL1 171744Z 01013KT 11/02 A3019 RMK A01 T01100017  RH  053%=      5-min Rain = 0
KCL1 171745Z 00011KT 11/02 A3019 RMK A01 T01100016  RH  052%=      5-min Rain = 0
KCL1 171746Z 36011KT 11/02 A3019 RMK A01 T01090016  RH  053%=      5-min Rain = 0
KCL1 171747Z 01013KT 11/02 A3019 RMK A01 T01090016  RH  053%=      5-min Rain = 0
KCL1 171748Z 02011KT 11/02 A3019 RMK A01 T01100016  RH  052%=      5-min Rain = 0
KCL1 171749Z 00011KT 11/02 A3019 RMK A01 T01120017  RH  052%=      5-min Rain = 0
KCL1 171750Z 01011KT 11/02 A3019 RMK A01 T01130017  RH  052%=      5-min Rain = 0
KCL1 171751Z 02010KT 11/02 A3019 RMK A01 T01140017  RH  052%=      5-min Rain = 0
KCL1 171752Z 00009KT 12/02 A3019 RMK A01 T01150016  RH  051%=      5-min Rain = 0
KCL1 171753Z 34009KT 12/02 A3018 RMK A01 T01150018  RH  051%=      5-min Rain = 0
KCL1 171754Z 35011KT 12/02 A3018 RMK A01 T01170018  RH  050%=      5-min Rain = 0
KCL1 171755Z 35015KT 12/02 A3018 RMK A01 T01180018  RH  050%=      5-min Rain = 0
KCL1 171756Z 35016KT 12/02 A3019 RMK A01 T01160015  RH  050%=      5-min Rain = 0
KCL1 171757Z 35013KT 11/01 A3019 RMK A01 T01140014  RH  050%=      5-min Rain = 0
KCL1 171758Z 35013KT 11/01 A3018 RMK A01 T01130014  RH  050%=      5-min Rain = 0
KCL1 171759Z 35012KT 11/01 A3018 RMK A01 T01120013  RH  051%=      5-min Rain = 0
KCL1 171800Z 34012KT 11/02 A3018 RMK A01 T01130015  RH  051%=      5-min Rain = 0
KCL1 171801Z 34013KT 12/02 A3018 RMK A01 T01160016  RH  050%=      5-min Rain = 0
KCL1 171802Z 35013KT 12/02 A3018 RMK A01 T01160015  RH  050%=      5-min Rain = 0
KCL1 171803Z 36014KT 12/02 A3018 RMK A01 T01160015  RH  050%=      5-min Rain = 0
KCL1 171804Z 35013KT 12/02 A3018 RMK A01 T01150015  RH  050%=      5-min Rain = 0
KCL1 171805Z 35015KT 12/02 A3018 RMK A01 T01150015  RH  050%=      5-min Rain = 0
KCL1 171806Z 35015KT 12/02 A3018 RMK A01 T01160016  RH  050%=      5-min Rain = 0
KCL1 171807Z 35013KT 12/02 A3018 RMK A01 T01150015  RH  050%=      5-min Rain = 0
KCL1 171808Z 35013KT 12/02 A3018 RMK A01 T01150015  RH  050%=      5-min Rain = 0
KCL1 171809Z 35014KT 12/02 A3018 RMK A01 T01160016  RH  050%=      5-min Rain = 0
KCL1 171810Z 35013KT 12/02 A3018 RMK A01 T01170015  RH  050%=      5-min Rain = 0
KCL1 171811Z 34013KT 12/01 A3018 RMK A01 T01160014  RH  050%=      5-min Rain = 0
KCL1 171812Z 35015KT 12/01 A3018 RMK A01 T01150014  RH  050%=      5-min Rain = 0
KCL1 171813Z 34012KT 12/02 A3018 RMK A01 T01150015  RH  050%=      5-min Rain = 0
KCL1 171814Z 34011KT 12/02 A3018 RMK A01 T01160015  RH  050%=      5-min Rain = 0
KCL1 171815Z 35010KT 12/02 A3018 RMK A01 T01160015  RH  050%=      5-min Rain = 0
KCL1 171816Z 36011KT 12/02 A3018 RMK A01 T01170016  RH  050%=      5-min Rain = 0
KCL1 171817Z 36014KT 12/02 A3018 RMK A01 T01190016  RH  049%=      5-min Rain = 0
KCL1 171818Z 35014KT 12/02 A3018 RMK A01 T01190015  RH  049%=      5-min Rain = 0
KCL1 171819Z 00013KT 12/02 A3018 RMK A01 T01190015  RH  049%=      5-min Rain = 0
KCL1 171820Z 01013KT 12/02 A3018 RMK A01 T01190015  RH  049%=      5-min Rain = 0
KCL1 171821Z 36012KT 12/01 A3018 RMK A01 T01180014  RH  049%=      5-min Rain = 0
KCL1 171822Z 00013G19KT 12/02 A3018 RMK A01 T01170015  RH  049%=      5-min Rain = 0
KCL1 171823Z 35010KT 12/01 A3018 RMK A01 T01170014  RH  049%=      5-min Rain = 0
KCL1 171824Z 01009KT 12/02 A3017 RMK A01 T01180016  RH  050%=      5-min Rain = 0
KCL1 171825Z 35010KT 12/02 A3017 RMK A01 T01190015  RH  049%=      5-min Rain = 0
KCL1 171826Z 35013KT 12/02 A3017 RMK A01 T01180015  RH  049%=      5-min Rain = 0
KCL1 171827Z 35012KT 12/02 A3017 RMK A01 T01190017  RH  050%=      5-min Rain = 0
KCL1 171828Z 34012KT 12/02 A3017 RMK A01 T01230018  RH  049%=      5-min Rain = 0
KCL1 171829Z 34010KT 12/02 A3017 RMK A01 T01210015  RH  048%=      5-min Rain = 0
KCL1 171830Z 33008KT 12/02 A3017 RMK A01 T01190016  RH  049%=      5-min Rain = 0
KCL1 171831Z 33008KT 12/02 A3017 RMK A01 T01200017  RH  049%=      5-min Rain = 0
KCL1 171832Z 32014KT 12/02 A3017 RMK A01 T01210017  RH  049%=      5-min Rain = 0
KCL1 171833Z 33014KT 12/02 A3017 RMK A01 T01200015  RH  048%=      5-min Rain = 0
KCL1 171834Z 33011KT 12/01 A3017 RMK A01 T01190014  RH  049%=      5-min Rain = 0
KCL1 171835Z 34011KT 12/02 A3017 RMK A01 T01190016  RH  049%=      5-min Rain = 0
KCL1 171836Z 35011KT 12/02 A3017 RMK A01 T01210017  RH  049%=      5-min Rain = 0
KCL1 171837Z 35010KT 12/02 A3017 RMK A01 T01220016  RH  048%=      5-min Rain = 0
KCL1 171838Z 35011KT 12/02 A3017 RMK A01 T01210017  RH  049%=      5-min Rain = 0
KCL1 171839Z 35012KT 12/02 A3016 RMK A01 T01210016  RH  048%=      5-min Rain = 0
KCL1 171840Z 35011KT 12/02 A3016 RMK A01 T01220016  RH  048%=      5-min Rain = 0
KCL1 171841Z 34012KT 12/02 A3016 RMK A01 T01230016  RH  048%=      5-min Rain = 0
KCL1 171842Z 33012KT 12/02 A3016 RMK A01 T01220015  RH  048%=      5-min Rain = 0
KCL1 171843Z 34010KT 12/02 A3016 RMK A01 T01210015  RH  048%=      5-min Rain = 0
KCL1 171844Z 36013KT 12/02 A3016 RMK A01 T01210015  RH  049%=      5-min Rain = 0
KCL1 171845Z 00011KT 12/02 A3016 RMK A01 T01210015  RH  048%=      5-min Rain = 0
KCL1 171846Z 01009KT 12/02 A3016 RMK A01 T01210015  RH  048%=      5-min Rain = 0
KCL1 171847Z 33009KT 12/02 A3016 RMK A01 T01210015  RH  048%=      5-min Rain = 0
KCL1 171848Z 35009KT 12/02 A3016 RMK A01 T01220015  RH  048%=      5-min Rain = 0
KCL1 171849Z 33008KT 12/02 A3016 RMK A01 T01230015  RH  048%=      5-min Rain = 0
KCL1 171850Z 34009KT 12/02 A3016 RMK A01 T01230016  RH  048%=      5-min Rain = 0
KCL1 171851Z 35011KT 13/02 A3016 RMK A01 T01250017  RH  048%=      5-min Rain = 0
KCL1 171852Z 34008KT 13/02 A3016 RMK A01 T01250015  RH  047%=      5-min Rain = 0
KCL1 171853Z 34008KT 12/02 A3016 RMK A01 T01240016  RH  048%=      5-min Rain = 0
KCL1 171854Z 35008KT 12/02 A3016 RMK A01 T01230015  RH  047%=      5-min Rain = 0
KCL1 171855Z 00010KT 12/02 A3016 RMK A01 T01240016  RH  048%=      5-min Rain = 0
KCL1 171856Z 34009KT 13/02 A3016 RMK A01 T01270018  RH  047%=      5-min Rain = 0
KCL1 171857Z 35013KT 13/02 A3016 RMK A01 T01290017  RH  046%=      5-min Rain = 0
KCL1 171858Z 36013KT 13/01 A3016 RMK A01 T01280014  RH  046%=      5-min Rain = 0
KCL1 171859Z 36010KT 13/01 A3015 RMK A01 T01260014  RH  046%=      5-min Rain = 0
KCL1 171900Z 00010KT 13/01 A3015 RMK A01 T01260014  RH  046%=      5-min Rain = 0
KCL1 171901Z 36010KT 13/02 A3015 RMK A01 T01260015  RH  047%=      5-min Rain = 0
KCL1 171902Z 35008KT 13/02 A3015 RMK A01 T01270015  RH  046%=      5-min Rain = 0
KCL1 171903Z 34013KT 13/02 A3015 RMK A01 T01270015  RH  046%=      5-min Rain = 0
KCL1 171904Z 00012KT 13/02 A3015 RMK A01 T01280015  RH  046%=      5-min Rain = 0
KCL1 171905Z 01012KT 13/01 A3015 RMK A01 T01280014  RH  046%=      5-min Rain = 0
KCL1 171906Z 00012KT 13/01 A3015 RMK A01 T01280014  RH  046%=      5-min Rain = 0
KCL1 171907Z 36009KT 13/01 A3015 RMK A01 T01270013  RH  046%=      5-min Rain = 0
KCL1 171908Z 35012KT 13/01 A3015 RMK A01 T01260012  RH  046%=      5-min Rain = 0
KCL1 171909Z 34010KT 13/01 A3014 RMK A01 T01250012  RH  046%=      5-min Rain = 0
KCL1 171910Z 35010KT 13/01 A3014 RMK A01 T01250013  RH  046%=      5-min Rain = 0
KCL1 171911Z 35009KT 13/01 A3014 RMK A01 T01260014  RH  046%=      5-min Rain = 0
KCL1 171912Z 01009KT 13/01 A3014 RMK A01 T01260014  RH  046%=      5-min Rain = 0
KCL1 171913Z 01009KT 13/02 A3014 RMK A01 T01280016  RH  046%=      5-min Rain = 0
KCL1 171914Z 34009KT 13/02 A3014 RMK A01 T01310018  RH  046%=      5-min Rain = 0
KCL1 171915Z 33008KT 13/02 A3014 RMK A01 T01330017  RH  045%=      5-min Rain = 0
KCL1 171916Z 35009KT 13/02 A3014 RMK A01 T01320015  RH  045%=      5-min Rain = 0
KCL1 171917Z 34009KT 13/02 A3014 RMK A01 T01300015  RH  046%=      5-min Rain = 0
KCL1 171918Z 36010KT 13/02 A3014 RMK A01 T01290015  RH  046%=      5-min Rain = 0
KCL1 171919Z 34012KT 13/01 A3014 RMK A01 T01300013  RH  045%=      5-min Rain = 0
KCL1 171920Z 34008KT 13/01 A3014 RMK A01 T01310014  RH  045%=      5-min Rain = 0
KCL1 171921Z 35011KT 13/02 A3014 RMK A01 T01330015  RH  045%=      5-min Rain = 0
KCL1 171922Z 35010KT 13/01 A3014 RMK A01 T01320013  RH  044%=      5-min Rain = 0
KCL1 171923Z 35009KT 13/01 A3014 RMK A01 T01300013  RH  045%=      5-min Rain = 0
KCL1 171924Z 34009KT 13/01 A3014 RMK A01 T01300013  RH  045%=      5-min Rain = 0
KCL1 171925Z 34010KT 13/01 A3013 RMK A01 T01300012  RH  045%=      5-min Rain = 0
KCL1 171926Z 34010KT 13/01 A3013 RMK A01 T01300011  RH  044%=      5-min Rain = 0
KCL1 171927Z 35009KT 13/01 A3013 RMK A01 T01300012  RH  044%=      5-min Rain = 0
KCL1 171928Z 35009KT 13/01 A3013 RMK A01 T01300013  RH  045%=      5-min Rain = 0
KCL1 171929Z 35011KT 13/02 A3013 RMK A01 T01320015  RH  045%=      5-min Rain = 0
KCL1 171930Z 34010KT 13/01 A3013 RMK A01 T01320014  RH  045%=      5-min Rain = 0
KCL1 171931Z 34012KT 13/01 A3013 RMK A01 T01310014  RH  045%=      5-min Rain = 0
KCL1 171932Z 33010KT 13/01 A3013 RMK A01 T01300013  RH  045%=      5-min Rain = 0
KCL1 171933Z 34009KT 13/01 A3013 RMK A01 T01300013  RH  045%=      5-min Rain = 0
KCL1 171934Z 34009G14KT 13/01 A3013 RMK A01 T01290013  RH  045%=      5-min Rain = 0
KCL1 171935Z 34009KT 13/01 A3013 RMK A01 T01300014  RH  045%=      5-min Rain = 0
KCL1 171936Z 34006KT 13/01 A3013 RMK A01 T01300014  RH  045%=      5-min Rain = 0
KCL1 171937Z 33006KT 13/01 A3013 RMK A01 T01300013  RH  045%=      5-min Rain = 0
KCL1 171938Z 33009KT 13/01 A3012 RMK A01 T01300014  RH  045%=      5-min Rain = 0
KCL1 171939Z 35011KT 13/02 A3012 RMK A01 T01320015  RH  045%=      5-min Rain = 0
KCL1 171940Z 35010KT 13/01 A3012 RMK A01 T01330013  RH  044%=      5-min Rain = 0
KCL1 171941Z 34006KT 13/01 A3012 RMK A01 T01320013  RH  044%=      5-min Rain = 0
KCL1 171942Z 34006KT 13/01 A3012 RMK A01 T01320014  RH  045%=      5-min Rain = 0
KCL1 171943Z 34008KT 13/02 A3012 RMK A01 T01330015  RH  045%=      5-min Rain = 0
KCL1 171944Z 33010KT 13/01 A3012 RMK A01 T01340013  RH  044%=      5-min Rain = 0
KCL1 171945Z 34008KT 14/01 A3012 RMK A01 T01350012  RH  043%=      5-min Rain = 0
KCL1 171946Z 35008KT 14/01 A3012 RMK A01 T01360011  RH  043%=      5-min Rain = 0
KCL1 171947Z 35006KT 13/01 A3012 RMK A01 T01340010  RH  043%=      5-min Rain = 0
KCL1 171948Z 32010KT 13/01 A3012 RMK A01 T01340010  RH  043%=      5-min Rain = 0
KCL1 171949Z 33012KT 14/01 A3011 RMK A01 T01360010  RH  042%=      5-min Rain = 0
KCL1 171950Z 33011KT 14/01 A3011 RMK A01 T01350010  RH  043%=      5-min Rain = 0
KCL1 171951Z 33008KT 13/01 A3011 RMK A01 T01330010  RH  043%=      5-min Rain = 0
KCL1 171952Z 33012KT 13/01 A3011 RMK A01 T01340011  RH  043%=      5-min Rain = 0
KCL1 171953Z 33011KT 13/01 A3011 RMK A01 T01340009  RH  042%=      5-min Rain = 0
KCL1 171954Z 33009KT 13/01 A3011 RMK A01 T01320008  RH  043%=      5-min Rain = 0
KCL1 171955Z 32008KT 13/01 A3011 RMK A01 T01320009  RH  043%=      5-min Rain = 0
KCL1 171956Z 33009KT 13/01 A3011 RMK A01 T01340010  RH  043%=      5-min Rain = 0
KCL1 171957Z 32008KT 13/01 A3011 RMK A01 T01340010  RH  043%=      5-min Rain = 0
KCL1 171958Z 35010KT 13/01 A3011 RMK A01 T01340010  RH  043%=      5-min Rain = 0
KCL1 171959Z 35007KT 13/01 A3011 RMK A01 T01330009  RH  043%=      5-min Rain = 0
KCL1 172000Z 36008KT 13/01 A3011 RMK A01 T01320011  RH  043%=      5-min Rain = 0
KCL1 172001Z 35008KT 13/01 A3011 RMK A01 T01330013  RH  044%=      5-min Rain = 0
KCL1 172002Z 33007KT 14/01 A3011 RMK A01 T01350014  RH  044%=      5-min Rain = 0
KCL1 172003Z 34006KT 14/01 A3011 RMK A01 T01350013  RH  043%=      5-min Rain = 0
KCL1 172004Z 34005KT 14/01 A3011 RMK A01 T01350013  RH  043%=      5-min Rain = 0
KCL1 172005Z 34005KT 14/01 A3011 RMK A01 T01350012  RH  043%=      5-min Rain = 0
KCL1 172006Z 32005KT 14/01 A3011 RMK A01 T01350013  RH  044%=      5-min Rain = 0
KCL1 172007Z 34004KT 14/01 A301 RMK A01 T01360012  RH  043%=      5-min Rain = 0
KCL1 172008Z 35009KT 14/01 A301 RMK A01 T01360012  RH  043%=      5-min Rain = 0
KCL1 172009Z 01009KT 14/01 A3011 RMK A01 T01360010  RH  042%=      5-min Rain = 0
KCL1 172010Z 36007KT 14/01 A3011 RMK A01 T01370011  RH  042%=      5-min Rain = 0
KCL1 172011Z 35006KT 14/01 A301 RMK A01 T01380011  RH  042%=      5-min Rain = 0
KCL1 172012Z 35009KT 14/01 A301 RMK A01 T01390011  RH  042%=      5-min Rain = 0
KCL1 172013Z 36007KT 14/01 A301 RMK A01 T01380008  RH  041%=      5-min Rain = 0
KCL1 172014Z 34008KT 14/01 A301 RMK A01 T01370009  RH  042%=      5-min Rain = 0
KCL1 172015Z 00005KT 14/01 A301 RMK A01 T01370009  RH  042%=      5-min Rain = 0
KCL1 172016Z 02005KT 14/01 A301 RMK A01 T01360009  RH  042%=      5-min Rain = 0
KCL1 172017Z 01005KT 14/01 A301 RMK A01 T01350011  RH  043%=      5-min Rain = 0
KCL1 172018Z 33008KT 14/01 A301 RMK A01 T01380013  RH  043%=      5-min Rain = 0
KCL1 172019Z 35009KT 14/01 A301 RMK A01 T01400012  RH  042%=      5-min Rain = 0
KCL1 172020Z 34008KT 14/01 A301 RMK A01 T01390011  RH  042%=      5-min Rain = 0
KCL1 172021Z 32007KT 14/01 A301 RMK A01 T01390011  RH  042%=      5-min Rain = 0
KCL1 172022Z 31004KT 14/01 A301 RMK A01 T01370009  RH  042%=      5-min Rain = 0
KCL1 172023Z 33004KT 14/01 A301 RMK A01 T01360009  RH  042%=      5-min Rain = 0
KCL1 172024Z 35006KT 14/01 A301 RMK A01 T01360010  RH  042%=      5-min Rain = 0
KCL1 172025Z 34007KT 14/01 A301 RMK A01 T01370006  RH  041%=      5-min Rain = 0
KCL1 172026Z 35007KT 14/00 A301 RMK A01 T01370004  RH  040%=      5-min Rain = 0
KCL1 172027Z 35009KT 14/00 A301 RMK A01 T01370003  RH  040%=      5-min Rain = 0
KCL1 172028Z 35007KT 14/01 A301 RMK A01 T01370005  RH  041%=      5-min Rain = 0
KCL1 172029Z 33008KT 14/01 A301 RMK A01 T01380007  RH  041%=      5-min Rain = 0
KCL1 172030Z 36008KT 14/00 A301 RMK A01 T01390004  RH  040%=      5-min Rain = 0
KCL1 172031Z 35005KT 14/00 A301 RMK A01 T01380003  RH  040%=      5-min Rain = 0
KCL1 172032Z 33006KT 14/01 A301 RMK A01 T01380005  RH  040%=      5-min Rain = 0
KCL1 172033Z 34008KT 14/01 A301 RMK A01 T01390006  RH  040%=      5-min Rain = 0
KCL1 172034Z 01008KT 14/01 A301 RMK A01 T01400007  RH  040%=      5-min Rain = 0
KCL1 172035Z 00008KT 14/01 A301 RMK A01 T01390008  RH  041%=      5-min Rain = 0
KCL1 172036Z 33006KT 14/01 A301 RMK A01 T01390009  RH  041%=      5-min Rain = 0
KCL1 172037Z 34005KT 14/01 A301 RMK A01 T01390008  RH  041%=      5-min Rain = 0
KCL1 172038Z 36005KT 14/01 A301 RMK A01 T01380008  RH  041%=      5-min Rain = 0
KCL1 172039Z 33005KT 14/01 A301 RMK A01 T01390008  RH  041%=      5-min Rain = 0
KCL1 172040Z 35005KT 14/01 A301 RMK A01 T01410008  RH  040%=      5-min Rain = 0
KCL1 172041Z 33003KT 14/01 A301 RMK A01 T01410008  RH  040%=      5-min Rain = 0
KCL1 172042Z 35005KT 14/01 A301 RMK A01 T01400007  RH  040%=      5-min Rain = 0
KCL1 172043Z 34004KT 14/01 A301 RMK A01 T01390007  RH  040%=      5-min Rain = 0
KCL1 172044Z 33005KT 14/01 A301 RMK A01 T01390009  RH  041%=      5-min Rain = 0
KCL1 172045Z 33006KT 14/01 A3009 RMK A01 T01410009  RH  041%=      5-min Rain = 0
KCL1 172046Z 32007KT 14/01 A3009 RMK A01 T01410008  RH  040%=      5-min Rain = 0
KCL1 172047Z 34006KT 14/01 A3009 RMK A01 T01400005  RH  040%=      5-min Rain = 0
KCL1 172048Z 01005KT 14/01 A3009 RMK A01 T01400005  RH  040%=      5-min Rain = 0
KCL1 172049Z 01007KT 14/00 A3009 RMK A01 T01390004  RH  040%=      5-min Rain = 0
KCL1 172050Z 01005KT 14/00 A3009 RMK A01 T01390004  RH  040%=      5-min Rain = 0
KCL1 172051Z 34004KT 14/01 A3009 RMK A01 T01390005  RH  040%=      5-min Rain = 0
KCL1 172052Z 33007KT 14/01 A3009 RMK A01 T01400006  RH  040%=      5-min Rain = 0
KCL1 172053Z 32006KT 14/00 A3009 RMK A01 T01400004  RH  039%=      5-min Rain = 0
KCL1 172054Z 33007KT 14/00 A3009 RMK A01 T01390004  RH  040%=      5-min Rain = 0
KCL1 172055Z 34006KT 14/01 A3009 RMK A01 T01400005  RH  040%=      5-min Rain = 0
KCL1 172056Z 33004KT 14/00 A3009 RMK A01 T01400004  RH  039%=      5-min Rain = 0
KCL1 172057Z 33005KT 14/01 A3009 RMK A01 T01400005  RH  040%=      5-min Rain = 0
KCL1 172058Z 31007KT 14/01 A3009 RMK A01 T01410007  RH  040%=      5-min Rain = 0
KCL1 172059Z 31006KT 14/01 A3009 RMK A01 T01410007  RH  040%=      5-min Rain = 0
KCL1 172100Z 31004KT 14/01 A3009 RMK A01 T01410006  RH  040%=      5-min Rain = 0
KCL1 172101Z 32002KT 14/01 A3009 RMK A01 T01400006  RH  040%=      5-min Rain = 0
KCL1 172102Z 33004KT 14/01 A3009 RMK A01 T01410008  RH  040%=      5-min Rain = 0
KCL1 172103Z 33005KT 14/01 A3009 RMK A01 T01420008  RH  040%=      5-min Rain = 0
KCL1 172104Z 33004KT 14/01 A3009 RMK A01 T01420008  RH  040%=      5-min Rain = 0
KCL1 172105Z 35007KT 14/01 A3009 RMK A01 T01420008  RH  040%=      5-min Rain = 0
KCL1 172106Z 34008KT 14/01 A3009 RMK A01 T01410007  RH  040%=      5-min Rain = 0
KCL1 172107Z 33007KT 14/01 A3009 RMK A01 T01410007  RH  040%=      5-min Rain = 0
KCL1 172108Z 32006KT 14/01 A3009 RMK A01 T01410007  RH  040%=      5-min Rain = 0
KCL1 172109Z 31004KT 14/01 A3009 RMK A01 T01400006  RH  040%=      5-min Rain = 0
KCL1 172110Z 33002KT 14/01 A3009 RMK A01 T01390006  RH  040%=      5-min Rain = 0
KCL1 172111Z 34003KT 14/01 A3009 RMK A01 T01390008  RH  041%=      5-min Rain = 0
KCL1 172112Z 31005KT 14/01 A3008 RMK A01 T01410008  RH  040%=      5-min Rain = 0
KCL1 172113Z 30006KT 14/01 A3008 RMK A01 T01410008  RH  040%=      5-min Rain = 0
KCL1 172114Z 32007KT 14/01 A3008 RMK A01 T01420008  RH  040%=      5-min Rain = 0
KCL1 172115Z 33007KT 14/01 A3008 RMK A01 T01420009  RH  040%=      5-min Rain = 0
KCL1 172116Z 33008KT 14/01 A3008 RMK A01 T01430008  RH  040%=      5-min Rain = 0
KCL1 172117Z 34006KT 14/01 A3008 RMK A01 T01430007  RH  039%=      5-min Rain = 0
KCL1 172118Z 34006KT 14/01 A3008 RMK A01 T01420008  RH  040%=      5-min Rain = 0
KCL1 172119Z 35007KT 14/01 A3008 RMK A01 T01430007  RH  040%=      5-min Rain = 0
KCL1 172120Z 00007KT 14/01 A3008 RMK A01 T01420006  RH  039%=      5-min Rain = 0
KCL1 172121Z 35006KT 14/01 A3008 RMK A01 T01410006  RH  040%=      5-min Rain = 0
KCL1 172122Z 32006KT 14/01 A3008 RMK A01 T01410006  RH  040%=      5-min Rain = 0
KCL1 172123Z 33005KT 14/00 A3008 RMK A01 T01410003  RH  039%=      5-min Rain = 0
KCL1 172124Z 30004KT 14/00 A3008 RMK A01 T01410003  RH  039%=      5-min Rain = 0
KCL1 172125Z 30007KT 14/00 A3008 RMK A01 T01410004  RH  039%=      5-min Rain = 0
KCL1 172126Z 31007KT 14/00 A3008 RMK A01 T01420003  RH  039%=      5-min Rain = 0
KCL1 172127Z 31007KT 14/00 A3008 RMK A01 T01420003  RH  039%=      5-min Rain = 0
KCL1 172128Z 34006KT 14/00 A3008 RMK A01 T01420003  RH  039%=      5-min Rain = 0
KCL1 172129Z 35006KT 14/00 A3008 RMK A01 T01420002  RH  038%=      5-min Rain = 0
KCL1 172130Z 01004KT 14/00 A3008 RMK A01 T01410002  RH  038%=      5-min Rain = 0
KCL1 172131Z 35005KT 14/00 A3008 RMK A01 T01410002  RH  038%=      5-min Rain = 0
KCL1 172132Z 00004KT 14/00 A3008 RMK A01 T01410000  RH  038%=      5-min Rain = 0
KCL1 172133Z 01005KT 14/00 A3008 RMK A01 T01400001  RH  038%=      5-min Rain = 0
KCL1 172134Z 34007KT 14/00 A3008 RMK A01 T01400001  RH  039%=      5-min Rain = 0
KCL1 172135Z 33007KT 14/00 A3008 RMK A01 T01400002  RH  039%=      5-min Rain = 0
KCL1 172136Z 34007KT 14/00 A3008 RMK A01 T01410002  RH  039%=      5-min Rain = 0
KCL1 172137Z 33006KT 14/00 A3008 RMK A01 T01410004  RH  039%=      5-min Rain = 0
KCL1 172138Z 34004KT 14/01 A3008 RMK A01 T01420005  RH  039%=      5-min Rain = 0
KCL1 172139Z 32003KT 14/01 A3008 RMK A01 T01420005  RH  039%=      5-min Rain = 0
KCL1 172140Z 32002KT 14/00 A3008 RMK A01 T01430004  RH  038%=      5-min Rain = 0
KCL1 172141Z 31002KT 14/00 A3008 RMK A01 T01430002  RH  038%=      5-min Rain = 0
KCL1 172142Z 32001G6KT 14/00 A3008 RMK A01 T01430003  RH  038%=      5-min Rain = 0
KCL1 172143Z 33006KT 14/00 A3008 RMK A01 T01440003  RH  038%=      5-min Rain = 0
KCL1 172144Z 32005KT 14/00 A3008 RMK A01 T01430001  RH  038%=      5-min Rain = 0
KCL1 172145Z 32005KT 14/00 A3008 RMK A01 T01420001  RH  038%=      5-min Rain = 0
KCL1 172146Z 31004KT 14/00 A3008 RMK A01 T01430003  RH  039%=      5-min Rain = 0
KCL1 172147Z 31004KT 14/00 A3008 RMK A01 T01430003  RH  038%=      5-min Rain = 0
KCL1 172148Z 34005KT 15/00 A3008 RMK A01 T01450004  RH  038%=      5-min Rain = 0
KCL1 172149Z 33005KT 15/00 A3008 RMK A01 T01450003  RH  038%=      5-min Rain = 0
KCL1 172150Z 32003KT 14/00 A3008 RMK A01 T01430001  RH  038%=      5-min Rain = 0
KCL1 172151Z 32005KT 14/00 A3008 RMK A01 T01420001  RH  038%=      5-min Rain = 0
KCL1 172152Z 33004KT 14/00 A3008 RMK A01 T01420001  RH  038%=      5-min Rain = 0
KCL1 172153Z 33005KT 14/00 A3008 RMK A01 T01410001  RH  038%=      5-min Rain = 0
KCL1 172154Z 35005KT 14/00 A3008 RMK A01 T01410001  RH  038%=      5-min Rain = 0
KCL1 172155Z 33005KT 14/00 A3009 RMK A01 T01420001  RH  038%=      5-min Rain = 0
KCL1 172156Z 32006KT 14/00 A3008 RMK A01 T01410001  RH  038%=      5-min Rain = 0
KCL1 172157Z 33005KT 14/00 A3008 RMK A01 T014100-0  RH  038%=      5-min Rain = 0
KCL1 172158Z 33004KT 14/00 A3008 RMK A01 T014000-0  RH  038%=      5-min Rain = 0
KCL1 172159Z 31005KT 14/00 A3008 RMK A01 T01400000  RH  038%=      5-min Rain = 0
KCL1 172200Z 32005KT 14/00 A3008 RMK A01 T01410001  RH  038%=      5-min Rain = 0
KCL1 172201Z 32005KT 14/00 A3008 RMK A01 T01410000  RH  038%=      5-min Rain = 0
KCL1 172202Z 33003KT 14/00 A3008 RMK A01 T014100-0  RH  038%=      5-min Rain = 0
KCL1 172203Z 36005KT 14/00 A3008 RMK A01 T014100-0  RH  038%=      5-min Rain = 0
KCL1 172204Z 35004KT 14/M00 A3008 RMK A01 T01411002  RH  037%=      5-min Rain = 0
KCL1 172205Z 35005KT 14/M00 A3009 RMK A01 T01411002  RH  037%=      5-min Rain = 0
KCL1 172206Z 34003KT 14/M00 A3009 RMK A01 T01411002  RH  037%=      5-min Rain = 0
KCL1 172207Z 36003KT 14/M00 A3009 RMK A01 T01411001  RH  038%=      5-min Rain = 0
KCL1 172208Z 35002KT 14/M00 A3009 RMK A01 T01421002  RH  037%=      5-min Rain = 0
KCL1 172209Z 33001KT 14/M00 A3009 RMK A01 T01421002  RH  037%=      5-min Rain = 0
KCL1 172210Z 32003KT 14/M00 A3009 RMK A01 T01431002  RH  037%=      5-min Rain = 0
KCL1 172211Z 32005KT 14/M00 A3009 RMK A01 T01431003  RH  037%=      5-min Rain = 0
KCL1 172212Z 31006KT 14/M00 A3009 RMK A01 T01431004  RH  036%=      5-min Rain = 0
KCL1 172213Z 32006KT 14/M01 A3009 RMK A01 T01431006  RH  036%=      5-min Rain = 0
KCL1 172214Z 32005KT 14/M01 A3009 RMK A01 T01431007  RH  036%=      5-min Rain = 0
KCL1 172215Z 30005KT 14/M01 A3009 RMK A01 T01421007  RH  036%=      5-min Rain = 0
KCL1 172216Z 32005KT 14/M01 A3009 RMK A01 T01421006  RH  036%=      5-min Rain = 0
KCL1 172217Z 32005KT 14/M01 A3009 RMK A01 T01421007  RH  036%=      5-min Rain = 0
KCL1 172218Z 32004KT 14/M01 A3009 RMK A01 T01421007  RH  036%=      5-min Rain = 0
KCL1 172219Z 30003KT 14/M01 A3009 RMK A01 T01421007  RH  036%=      5-min Rain = 0
KCL1 172220Z 32005KT 14/M01 A3009 RMK A01 T01421006  RH  036%=      5-min Rain = 0
KCL1 172221Z 33004KT 14/M00 A3009 RMK A01 T01431004  RH  036%=      5-min Rain = 0
KCL1 172222Z 32004KT 14/M00 A3009 RMK A01 T01441004  RH  036%=      5-min Rain = 0
KCL1 172223Z 33004KT 14/M01 A3009 RMK A01 T01431007  RH  036%=      5-min Rain = 0
KCL1 172224Z 34005KT 14/M01 A3009 RMK A01 T01431008  RH  035%=      5-min Rain = 0
KCL1 172225Z 33005KT 14/M01 A3009 RMK A01 T01421010  RH  035%=      5-min Rain = 0
KCL1 172226Z 32005KT 14/M01 A3009 RMK A01 T01421009  RH  035%=      5-min Rain = 0
KCL1 172227Z 33005KT 14/M01 A3009 RMK A01 T01421011  RH  035%=      5-min Rain = 0
KCL1 172228Z 32005KT 14/M01 A3009 RMK A01 T01421010  RH  035%=      5-min Rain = 0
KCL1 172229Z 32005KT 14/M01 A3009 RMK A01 T01411009  RH  036%=      5-min Rain = 0
KCL1 172230Z 32005KT 14/M01 A3009 RMK A01 T01411009  RH  036%=      5-min Rain = 0
KCL1 172231Z 31004KT 14/M01 A3009 RMK A01 T01411010  RH  036%=      5-min Rain = 0
KCL1 172232Z 32004KT 14/M01 A3009 RMK A01 T01411010  RH  035%=      5-min Rain = 0
KCL1 172233Z 32004KT 14/M01 A3009 RMK A01 T01411009  RH  036%=      5-min Rain = 0
KCL1 172234Z 31004KT 14/M01 A3009 RMK A01 T01401008  RH  036%=      5-min Rain = 0
KCL1 172235Z 33005KT 14/M01 A3009 RMK A01 T01401007  RH  036%=      5-min Rain = 0
KCL1 172236Z 32005KT 14/M01 A3009 RMK A01 T01401006  RH  037%=      5-min Rain = 0
KCL1 172237Z 34005KT 14/M01 A3009 RMK A01 T01391006  RH  037%=      5-min Rain = 0
KCL1 172238Z 34005KT 14/M01 A3009 RMK A01 T01391005  RH  037%=      5-min Rain = 0
KCL1 172239Z 34005KT 14/M00 A3009 RMK A01 T01391004  RH  037%=      5-min Rain = 0
KCL1 172240Z 35004KT 14/M01 A3009 RMK A01 T01391005  RH  037%=      5-min Rain = 0
KCL1 172241Z 34003KT 14/M01 A3009 RMK A01 T01391005  RH  037%=      5-min Rain = 0
KCL1 172242Z 35003KT 14/M00 A3009 RMK A01 T01391004  RH  038%=      5-min Rain = 0
KCL1 172243Z 33003KT 14/M01 A3009 RMK A01 T01391005  RH  037%=      5-min Rain = 0
KCL1 172244Z 33004KT 14/M01 A3009 RMK A01 T01391005  RH  037%=      5-min Rain = 0
KCL1 172245Z 32005KT 14/M01 A3009 RMK A01 T01391005  RH  037%=      5-min Rain = 0
KCL1 172246Z 33004KT 14/M01 A3009 RMK A01 T01391005  RH  037%=      5-min Rain = 0
KCL1 172247Z 32003KT 14/M01 A3009 RMK A01 T01391005  RH  037%=      5-min Rain = 0
KCL1 172248Z 32003KT 14/M01 A3009 RMK A01 T01381005  RH  037%=      5-min Rain = 0
KCL1 172249Z 31003KT 14/M01 A3009 RMK A01 T01381005  RH  037%=      5-min Rain = 0
KCL1 172250Z 31002KT 14/M01 A3009 RMK A01 T01381005  RH  037%=      5-min Rain = 0
KCL1 172251Z 32002KT 14/M01 A3009 RMK A01 T01391005  RH  037%=      5-min Rain = 0
KCL1 172252Z 31002KT 14/M01 A3009 RMK A01 T01391005  RH  037%=      5-min Rain = 0
KCL1 172253Z 31004KT 14/M00 A3009 RMK A01 T01401004  RH  037%=      5-min Rain = 0
KCL1 172254Z 32003KT 14/M01 A3009 RMK A01 T01401006  RH  037%=      5-min Rain = 0
KCL1 172255Z 34003KT 14/M01 A3009 RMK A01 T01391006  RH  037%=      5-min Rain = 0
KCL1 172256Z 36003KT 14/M01 A3009 RMK A01 T01391007  RH  037%=      5-min Rain = 0
KCL1 172257Z 34003KT 14/M01 A3009 RMK A01 T01381008  RH  037%=      5-min Rain = 0
KCL1 172258Z 34003KT 14/M01 A3009 RMK A01 T01381008  RH  037%=      5-min Rain = 0
KCL1 172259Z 35003KT 14/M01 A3009 RMK A01 T01371008  RH  037%=      5-min Rain = 0
KCL1 172300Z 35003KT 14/M01 A3009 RMK A01 T01371008  RH  037%=      5-min Rain = 0
KCL1 172301Z 35003KT 14/M01 A3009 RMK A01 T01371007  RH  037%=      5-min Rain = 0
KCL1 172302Z 34003KT 14/M01 A3009 RMK A01 T01371007  RH  037%=      5-min Rain = 0
KCL1 172303Z 34003KT 14/M01 A3009 RMK A01 T01361006  RH  037%=      5-min Rain = 0
KCL1 172304Z 33004KT 14/M01 A3009 RMK A01 T01361006  RH  038%=      5-min Rain = 0
KCL1 172305Z 34004KT 14/M01 A3009 RMK A01 T01351006  RH  038%=      5-min Rain = 0
KCL1 172306Z 34004KT 14/M01 A3009 RMK A01 T01351005  RH  038%=      5-min Rain = 0
KCL1 172307Z 33004KT 14/M01 A3009 RMK A01 T01351005  RH  038%=      5-min Rain = 0
KCL1 172308Z 34003KT 13/M01 A3009 RMK A01 T01341005  RH  038%=      5-min Rain = 0
KCL1 172309Z 34003KT 13/M01 A3009 RMK A01 T01341005  RH  038%=      5-min Rain = 0
KCL1 172310Z 33003KT 13/M00 A3009 RMK A01 T01341004  RH  039%=      5-min Rain = 0
KCL1 172311Z 33003KT 13/M00 A3009 RMK A01 T01331004  RH  039%=      5-min Rain = 0
KCL1 172312Z 33003KT 13/M00 A3009 RMK A01 T01331004  RH  039%=      5-min Rain = 0
KCL1 172313Z 33003KT 13/M01 A3009 RMK A01 T01321005  RH  039%=      5-min Rain = 0
KCL1 172314Z 33003KT 13/M01 A3009 RMK A01 T01321005  RH  039%=      5-min Rain = 0
KCL1 172315Z 33003KT 13/M01 A3009 RMK A01 T01311007  RH  038%=      5-min Rain = 0
KCL1 172316Z 34002KT 13/M01 A3009 RMK A01 T01311007  RH  038%=      5-min Rain = 0
KCL1 172317Z 35002KT 13/M01 A3009 RMK A01 T01311007  RH  039%=      5-min Rain = 0
KCL1 172318Z 35003KT 13/M01 A3009 RMK A01 T01311006  RH  039%=      5-min Rain = 0
KCL1 172319Z 35003KT 13/M01 A3009 RMK A01 T01301007  RH  039%=      5-min Rain = 0
KCL1 172320Z 35002KT 13/M01 A3009 RMK A01 T01301007  RH  039%=      5-min Rain = 0
KCL1 172321Z 35002KT 13/M01 A3009 RMK A01 T01291007  RH  039%=      5-min Rain = 0
KCL1 172322Z 35002KT 13/M01 A3009 RMK A01 T01291007  RH  039%=      5-min Rain = 0
KCL1 172323Z 35002KT 13/M01 A3009 RMK A01 T01291007  RH  039%=      5-min Rain = 0
KCL1 172324Z 35002KT 13/M01 A3009 RMK A01 T01291008  RH  039%=      5-min Rain = 0
KCL1 172325Z 35002KT 13/M01 A3009 RMK A01 T01291007  RH  039%=      5-min Rain = 0
KCL1 172326Z 35002KT 13/M01 A3009 RMK A01 T01281008  RH  039%=      5-min Rain = 0
KCL1 172327Z 35001KT 13/M01 A3009 RMK A01 T01281008  RH  039%=      5-min Rain = 0
KCL1 172328Z 35002KT 13/M01 A3009 RMK A01 T01281008  RH  039%=      5-min Rain = 0
KCL1 172329Z 35002KT 13/M01 A3009 RMK A01 T01271008  RH  039%=      5-min Rain = 0
KCL1 172330Z 00002KT 13/M01 A3009 RMK A01 T01271009  RH  039%=      5-min Rain = 0
KCL1 172331Z 00002KT 13/M01 A3009 RMK A01 T01261009  RH  039%=      5-min Rain = 0
KCL1 172332Z 00002KT 13/M01 A3009 RMK A01 T01271008  RH  039%=      5-min Rain = 0
KCL1 172333Z 00002KT 13/M01 A3009 RMK A01 T01261009  RH  039%=      5-min Rain = 0
KCL1 172334Z 00002KT 13/M01 A3009 RMK A01 T01261009  RH  039%=      5-min Rain = 0
KCL1 172335Z 00002KT 13/M01 A3009 RMK A01 T01251010  RH  039%=      5-min Rain = 0
KCL1 172336Z 00002KT 13/M01 A3009 RMK A01 T01251009  RH  040%=      5-min Rain = 0
KCL1 172337Z 01002KT 12/M01 A3009 RMK A01 T01241009  RH  040%=      5-min Rain = 0
KCL1 172338Z 01002KT 12/M01 A3009 RMK A01 T01231010  RH  040%=      5-min Rain = 0
KCL1 172339Z 01001KT 12/M01 A3009 RMK A01 T01221010  RH  040%=      5-min Rain = 0
KCL1 172340Z 01001KT 12/M01 A3009 RMK A01 T01211009  RH  041%=      5-min Rain = 0
KCL1 172341Z 01001KT 12/M01 A3009 RMK A01 T01201009  RH  041%=      5-min Rain = 0
KCL1 172342Z 01001KT 12/M01 A3009 RMK A01 T01191009  RH  041%=      5-min Rain = 0
KCL1 172343Z 01001KT 12/M01 A3009 RMK A01 T01181009  RH  041%=      5-min Rain = 0
KCL1 172344Z 01001KT 12/M01 A3009 RMK A01 T01181009  RH  041%=      5-min Rain = 0
KCL1 172345Z 01001KT 12/M01 A3009 RMK A01 T01181009  RH  041%=      5-min Rain = 0
KCL1 172346Z 01001KT 12/M01 A3009 RMK A01 T01181009  RH  041%=      5-min Rain = 0
KCL1 172347Z 01001KT 12/M01 A3009 RMK A01 T01171009  RH  041%=      5-min Rain = 0
KCL1 172348Z 01001KT 12/M01 A3009 RMK A01 T01181009  RH  041%=      5-min Rain = 0
KCL1 172349Z 01000KT 12/M01 A3009 RMK A01 T01181010  RH  041%=      5-min Rain = 0
KCL1 172350Z 01000KT 12/M01 A3009 RMK A01 T01181010  RH  041%=      5-min Rain = 0
KCL1 172351Z 00000KT 12/M01 A3009 RMK A01 T01181011  RH  041%=      5-min Rain = 0
KCL1 172352Z 00000KT 12/M01 A3009 RMK A01 T01181011  RH  041%=      5-min Rain = 0
KCL1 172353Z 01000KT 12/M01 A3009 RMK A01 T01181011  RH  041%=      5-min Rain = 0
KCL1 172354Z 01000KT 12/M01 A3009 RMK A01 T01181011  RH  041%=      5-min Rain = 0
KCL1 172355Z 01001KT 12/M01 A3009 RMK A01 T01181011  RH  041%=      5-min Rain = 0
KCL1 172356Z 02001KT 12/M01 A3009 RMK A01 T01181010  RH  041%=      5-min Rain = 0
KCL1 172357Z 03002KT 12/M01 A3009 RMK A01 T01171011  RH  041%=      5-min Rain = 0
KCL1 172358Z 03001KT 12/M01 A3009 RMK A01 T01171011  RH  041%=      5-min Rain = 0
KCL1 172359Z 03002KT 12/M01 A3009 RMK A01 T01161011  RH  041%=      5-min Rain = 0
KCL1 180000Z 03002KT 12/M01 A3009 RMK A01 T01161011  RH  041%=      5-min Rain = 0
KCL1 180001Z 03002KT 12/M01 A3009 RMK A01 T01161011  RH  041%=      5-min Rain = 0
KCL1 180002Z 03002KT 12/M01 A3009 RMK A01 T01151011  RH  041%=      5-min Rain = 0
KCL1 180003Z 03002KT 12/M01 A3009 RMK A01 T01151012  RH  041%=      5-min Rain = 0
KCL1 180004Z 03001KT 12/M01 A3009 RMK A01 T01151013  RH  041%=      5-min Rain = 0
KCL1 180005Z 03001KT 12/M01 A3009 RMK A01 T01151013  RH  041%=      5-min Rain = 0
KCL1 180006Z 03001KT 12/M01 A3009 RMK A01 T01161013  RH  041%=      5-min Rain = 0
KCL1 180007Z 03001KT 12/M01 A3009 RMK A01 T01161012  RH  041%=      5-min Rain = 0
KCL1 180008Z 03001KT 12/M01 A3009 RMK A01 T01161013  RH  041%=      5-min Rain = 0
KCL1 180009Z 03001KT 12/M01 A3009 RMK A01 T01151013  RH  041%=      5-min Rain = 0
KCL1 180010Z 03001KT 12/M01 A3009 RMK A01 T01151013  RH  041%=      5-min Rain = 0
KCL1 180011Z 03000KT 12/M01 A3009 RMK A01 T01151013  RH  041%=      5-min Rain = 0
KCL1 180012Z 03000KT 12/M01 A3009 RMK A01 T01151013  RH  041%=      5-min Rain = 0
KCL1 180013Z 00000KT 11/M01 A3008 RMK A01 T01141013  RH  041%=      5-min Rain = 0
KCL1 180014Z 00000KT 11/M01 A3008 RMK A01 T01141014  RH  041%=      5-min Rain = 0
KCL1 180015Z 00000KT 11/M01 A3009 RMK A01 T01141014  RH  041%=      5-min Rain = 0
KCL1 180016Z 00000KT 11/M01 A3009 RMK A01 T01131014  RH  041%=      5-min Rain = 0
KCL1 180017Z 00000KT 11/M01 A3009 RMK A01 T01121014  RH  041%=      5-min Rain = 0
KCL1 180018Z 00000KT 11/M01 A3009 RMK A01 T01121014  RH  041%=      5-min Rain = 0
KCL1 180019Z 00000KT 11/M02 A3009 RMK A01 T01121015  RH  041%=      5-min Rain = 0
KCL1 180020Z 00000KT 11/M02 A3009 RMK A01 T01131015  RH  041%=      5-min Rain = 0
KCL1 180021Z 00000KT 11/M02 A3009 RMK A01 T01131016  RH  041%=      5-min Rain = 0
KCL1 180022Z 00000KT 11/M02 A3009 RMK A01 T01141016  RH  040%=      5-min Rain = 0
KCL1 180023Z 00000KT 12/M02 A3009 RMK A01 T01151016  RH  040%=      5-min Rain = 0
KCL1 180024Z 00000KT 12/M02 A3009 RMK A01 T01151017  RH  040%=      5-min Rain = 0
KCL1 180025Z 00000KT 12/M02 A3009 RMK A01 T01161017  RH  040%=      5-min Rain = 0
KCL1 180026Z 00000KT 12/M02 A3009 RMK A01 T01171017  RH  039%=      5-min Rain = 0
KCL1 180027Z 00000KT 12/M02 A3009 RMK A01 T01171016  RH  039%=      5-min Rain = 0
KCL1 180028Z 00000KT 12/M02 A3009 RMK A01 T01171017  RH  039%=      5-min Rain = 0
KCL1 180029Z 00000KT 12/M02 A3009 RMK A01 T01171016  RH  039%=      5-min Rain = 0
KCL1 180030Z 00000KT 12/M02 A3009 RMK A01 T01161017  RH  040%=      5-min Rain = 0
KCL1 180031Z 00000KT 12/M02 A3009 RMK A01 T01151017  RH  040%=      5-min Rain = 0
KCL1 180032Z 00000KT 12/M02 A3009 RMK A01 T01151017  RH  040%=      5-min Rain = 0
KCL1 180033Z 00000KT 12/M02 A3009 RMK A01 T01151017  RH  040%=      5-min Rain = 0
KCL1 180034Z 00000KT 12/M02 A3009 RMK A01 T01151017  RH  040%=      5-min Rain = 0
KCL1 180035Z 00000KT 12/M02 A3009 RMK A01 T01151017  RH  040%=      5-min Rain = 0
KCL1 180036Z 00000KT 12/M02 A3009 RMK A01 T01151017  RH  040%=      5-min Rain = 0
KCL1 180037Z 00000KT 12/M02 A3009 RMK A01 T01151018  RH  040%=      5-min Rain = 0
KCL1 180038Z 00000KT 12/M02 A3009 RMK A01 T01151018  RH  040%=      5-min Rain = 0
KCL1 180039Z 00000KT 12/M02 A3009 RMK A01 T01151018  RH  039%=      5-min Rain = 0
KCL1 180040Z 00000KT 12/M02 A3009 RMK A01 T01151018  RH  039%=      5-min Rain = 0
KCL1 180041Z 00000KT 12/M02 A3009 RMK A01 T01151018  RH  039%=      5-min Rain = 0
KCL1 180042Z 00000KT 11/M02 A3009 RMK A01 T01141019  RH  040%=      5-min Rain = 0
KCL1 180043Z 00000KT 11/M02 A3009 RMK A01 T01141019  RH  040%=      5-min Rain = 0
KCL1 180044Z 00000KT 11/M02 A3009 RMK A01 T01141019  RH  040%=      5-min Rain = 0
KCL1 180045Z 00000KT 11/M02 A3009 RMK A01 T01141019  RH  040%=      5-min Rain = 0
KCL1 180046Z 00000KT 11/M02 A301 RMK A01 T01141018  RH  040%=      5-min Rain = 0
KCL1 180047Z 00000KT 11/M02 A301 RMK A01 T01141019  RH  040%=      5-min Rain = 0
KCL1 180048Z 00000KT 11/M02 A301 RMK A01 T01141019  RH  040%=      5-min Rain = 0
KCL1 180049Z 00000KT 11/M02 A301 RMK A01 T01141019  RH  040%=      5-min Rain = 0
KCL1 180050Z 00000KT 11/M02 A301 RMK A01 T01141019  RH  040%=      5-min Rain = 0
KCL1 180051Z 00000KT 11/M02 A301 RMK A01 T01131019  RH  040%=      5-min Rain = 0
KCL1 180052Z 00000KT 11/M02 A301 RMK A01 T01131019  RH  040%=      5-min Rain = 0
KCL1 180053Z 00000KT 11/M02 A301 RMK A01 T01121019  RH  040%=      5-min Rain = 0
KCL1 180054Z 00000KT 11/M02 A301 RMK A01 T01121019  RH  040%=      5-min Rain = 0
KCL1 180055Z 00000KT 11/M02 A301 RMK A01 T01121019  RH  040%=      5-min Rain = 0
KCL1 180056Z 00000KT 11/M02 A301 RMK A01 T01121019  RH  040%=      5-min Rain = 0
KCL1 180057Z 00000KT 11/M02 A301 RMK A01 T01121019  RH  040%=      5-min Rain = 0
KCL1 180058Z 00000KT 11/M02 A301 RMK A01 T01121019  RH  040%=      5-min Rain = 0
KCL1 180059Z 00000KT 11/M02 A301 RMK A01 T01121019  RH  040%=      5-min Rain = 0
KCL1 180100Z 00000KT 11/M02 A301 RMK A01 T01121019  RH  040%=      5-min Rain = 0
KCL1 180101Z 00000KT 11/M02 A301 RMK A01 T01121019  RH  040%=      5-min Rain = 0
KCL1 180102Z 00000KT 11/M02 A301 RMK A01 T01121019  RH  040%=      5-min Rain = 0
KCL1 180103Z 00000KT 11/M02 A301 RMK A01 T01121019  RH  040%=      5-min Rain = 0
KCL1 180104Z 00000KT 11/M02 A301 RMK A01 T01121019  RH  040%=      5-min Rain = 0
KCL1 180105Z 13001KT 11/M02 A301 RMK A01 T01121019  RH  040%=      5-min Rain = 0
KCL1 180106Z 13001KT 11/M02 A301 RMK A01 T01111019  RH  040%=      5-min Rain = 0
KCL1 180107Z 14001KT 11/M02 A301 RMK A01 T01111018  RH  040%=      5-min Rain = 0
KCL1 180108Z 14001KT 11/M02 A301 RMK A01 T01111018  RH  041%=      5-min Rain = 0
KCL1 180109Z 14001KT 11/M02 A301 RMK A01 T01101019  RH  041%=      5-min Rain = 0
KCL1 180110Z 14001KT 11/M02 A301 RMK A01 T01101018  RH  041%=      5-min Rain = 0
KCL1 180111Z 14001KT 11/M02 A301 RMK A01 T01101018  RH  041%=      5-min Rain = 0
KCL1 180112Z 14001KT 11/M02 A301 RMK A01 T01101018  RH  041%=      5-min Rain = 0
KCL1 180113Z 14001KT 11/M02 A301 RMK A01 T01101018  RH  041%=      5-min Rain = 0
KCL1 180114Z 14001KT 11/M02 A301 RMK A01 T01101018  RH  041%=      5-min Rain = 0
KCL1 180115Z 14001KT 11/M02 A301 RMK A01 T01101018  RH  041%=      5-min Rain = 0
KCL1 180116Z 14001KT 11/M02 A301 RMK A01 T01101018  RH  041%=      5-min Rain = 0
KCL1 180117Z 14001KT 11/M02 A301 RMK A01 T01091018  RH  041%=      5-min Rain = 0
KCL1 180118Z 14001KT 11/M02 A301 RMK A01 T01091018  RH  041%=      5-min Rain = 0
KCL1 180119Z 14001KT 11/M02 A301 RMK A01 T01091018  RH  041%=      5-min Rain = 0
KCL1 180120Z 14001KT 11/M02 A301 RMK A01 T01081017  RH  042%=      5-min Rain = 0
KCL1 180121Z 14001KT 11/M02 A301 RMK A01 T01081016  RH  042%=      5-min Rain = 0
KCL1 180122Z 14002KT 11/M02 A301 RMK A01 T01071017  RH  042%=      5-min Rain = 0
KCL1 180123Z 14002KT 11/M02 A301 RMK A01 T01061017  RH  042%=      5-min Rain = 0
KCL1 180124Z 15002KT 11/M02 A301 RMK A01 T01051016  RH  043%=      5-min Rain = 0
KCL1 180125Z 15002KT 11/M02 A301 RMK A01 T01051016  RH  043%=      5-min Rain = 0
KCL1 180126Z 15002KT 10/M02 A301 RMK A01 T01041015  RH  043%=      5-min Rain = 0
KCL1 180127Z 15001KT 10/M02 A301 RMK A01 T01041015  RH  043%=      5-min Rain = 0
KCL1 180128Z 15001KT 10/M02 A301 RMK A01 T01041016  RH  043%=      5-min Rain = 0
KCL1 180129Z 15002KT 11/M02 A301 RMK A01 T01051015  RH  043%=      5-min Rain = 0
KCL1 180130Z 15002KT 11/M02 A301 RMK A01 T01051015  RH  043%=      5-min Rain = 0
KCL1 180131Z 15002KT 11/M02 A301 RMK A01 T01051015  RH  043%=      5-min Rain = 0
KCL1 180132Z 15002KT 11/M02 A301 RMK A01 T01051015  RH  043%=      5-min Rain = 0
KCL1 180133Z 15002KT 10/M02 A301 RMK A01 T01041015  RH  043%=      5-min Rain = 0
KCL1 180134Z 15002KT 10/M02 A301 RMK A01 T01031015  RH  044%=      5-min Rain = 0
KCL1 180135Z 15002KT 10/M02 A301 RMK A01 T01011015  RH  044%=      5-min Rain = 0
KCL1 180136Z 15002KT 10/M02 A301 RMK A01 T01001016  RH  044%=      5-min Rain = 0
KCL1 180137Z 15002KT 10/M02 A301 RMK A01 T01001015  RH  045%=      5-min Rain = 0
KCL1 180138Z 15002KT 10/M02 A301 RMK A01 T00991015  RH  045%=      5-min Rain = 0
KCL1 180139Z 15002KT 10/M02 A301 RMK A01 T00991016  RH  045%=      5-min Rain = 0
KCL1 180140Z 15002KT 10/M02 A301 RMK A01 T00991015  RH  045%=      5-min Rain = 0
KCL1 180141Z 15002KT 10/M02 A301 RMK A01 T00981016  RH  045%=      5-min Rain = 0
KCL1 180142Z 15003KT 10/M02 A301 RMK A01 T00971016  RH  045%=      5-min Rain = 0
KCL1 180143Z 15002KT 10/M02 A301 RMK A01 T00971015  RH  045%=      5-min Rain = 0
KCL1 180144Z 15002KT 10/M02 A301 RMK A01 T00971015  RH  045%=      5-min Rain = 0
KCL1 180145Z 15002KT 10/M02 A301 RMK A01 T00971015  RH  045%=      5-min Rain = 0
KCL1 180146Z 15002KT 10/M02 A301 RMK A01 T00981015  RH  045%=      5-min Rain = 0
KCL1 180147Z 15002KT 10/M02 A301 RMK A01 T00981015  RH  045%=      5-min Rain = 0
KCL1 180148Z 15002KT 10/M02 A301 RMK A01 T00981015  RH  045%=      5-min Rain = 0
KCL1 180149Z 15002KT 10/M02 A301 RMK A01 T00981015  RH  045%=      5-min Rain = 0
KCL1 180150Z 15002KT 10/M02 A301 RMK A01 T00981015  RH  045%=      5-min Rain = 0
KCL1 180151Z 14002KT 10/M02 A301 RMK A01 T00981015  RH  045%=      5-min Rain = 0
KCL1 180152Z 14002KT 10/M01 A301 RMK A01 T00981014  RH  045%=      5-min Rain = 0
KCL1 180153Z 14003KT 10/M01 A301 RMK A01 T00981014  RH  046%=      5-min Rain = 0
KCL1 180154Z 13003KT 10/M01 A301 RMK A01 T00971014  RH  046%=      5-min Rain = 0
KCL1 180155Z 13003KT 10/M01 A301 RMK A01 T00971014  RH  046%=      5-min Rain = 0
KCL1 180156Z 13003KT 10/M01 A301 RMK A01 T00971013  RH  046%=      5-min Rain = 0
KCL1 180157Z 13003KT 10/M01 A301 RMK A01 T00961014  RH  046%=      5-min Rain = 0
KCL1 180158Z 13003KT 09/M02 A301 RMK A01 T00941015  RH  046%=      5-min Rain = 0
KCL1 180159Z 13003KT 09/M02 A301 RMK A01 T00921016  RH  047%=      5-min Rain = 0
KCL1 180200Z 13003KT 09/M02 A301 RMK A01 T00891016  RH  048%=      5-min Rain = 0
KCL1 180201Z 13003KT 09/M02 A3011 RMK A01 T00881016  RH  048%=      5-min Rain = 0
KCL1 180202Z 13003KT 09/M02 A3011 RMK A01 T00891015  RH  048%=      5-min Rain = 0
KCL1 180203Z 13003KT 09/M02 A3011 RMK A01 T00891015  RH  048%=      5-min Rain = 0
KCL1 180204Z 13003KT 09/M02 A3011 RMK A01 T00891016  RH  048%=      5-min Rain = 0
KCL1 180205Z 13003KT 09/M02 A301 RMK A01 T00891016  RH  048%=      5-min Rain = 0
KCL1 180206Z 13003KT 09/M02 A301 RMK A01 T00881016  RH  048%=      5-min Rain = 0
KCL1 180207Z 13003KT 09/M02 A301 RMK A01 T00871017  RH  048%=      5-min Rain = 0
KCL1 180208Z 13003KT 09/M02 A301 RMK A01 T00861017  RH  048%=      5-min Rain = 0
KCL1 180209Z 13003KT 08/M02 A301 RMK A01 T00841017  RH  049%=      5-min Rain = 0
KCL1 180210Z 13004KT 08/M02 A301 RMK A01 T00831017  RH  049%=      5-min Rain = 0
KCL1 180211Z 13004KT 08/M02 A301 RMK A01 T00821017  RH  050%=      5-min Rain = 0
KCL1 180212Z 13004KT 08/M02 A301 RMK A01 T00821017  RH  050%=      5-min Rain = 0
KCL1 180213Z 13004KT 08/M02 A301 RMK A01 T00831016  RH  050%=      5-min Rain = 0
KCL1 180214Z 13004KT 08/M02 A301 RMK A01 T00841016  RH  049%=      5-min Rain = 0
KCL1 180215Z 13004KT 09/M02 A301 RMK A01 T00851015  RH  049%=      5-min Rain = 0
KCL1 180216Z 13004KT 09/M02 A301 RMK A01 T00861016  RH  049%=      5-min Rain = 0
KCL1 180217Z 14004KT 09/M02 A301 RMK A01 T00871015  RH  049%=      5-min Rain = 0
KCL1 180218Z 14003KT 09/M02 A301 RMK A01 T00881015  RH  049%=      5-min Rain = 0
KCL1 180219Z 15003KT 09/M02 A301 RMK A01 T00881015  RH  048%=      5-min Rain = 0
KCL1 180220Z 15004KT 09/M02 A301 RMK A01 T00891015  RH  048%=      5-min Rain = 0
KCL1 180221Z 15004KT 09/M02 A301 RMK A01 T00891015  RH  048%=      5-min Rain = 0
KCL1 180222Z 15003KT 09/M02 A301 RMK A01 T00881015  RH  048%=      5-min Rain = 0
KCL1 180223Z 15003KT 09/M02 A301 RMK A01 T00871015  RH  049%=      5-min Rain = 0
KCL1 180224Z 15003KT 09/M02 A301 RMK A01 T00861015  RH  049%=      5-min Rain = 0
KCL1 180225Z 15003KT 09/M01 A301 RMK A01 T00871014  RH  049%=      5-min Rain = 0
KCL1 180226Z 15003KT 09/M01 A301 RMK A01 T00881014  RH  049%=      5-min Rain = 0
KCL1 180227Z 15003KT 09/M01 A301 RMK A01 T00891013  RH  049%=      5-min Rain = 0
KCL1 180228Z 15003KT 09/M01 A301 RMK A01 T00891014  RH  049%=      5-min Rain = 0
KCL1 180229Z 15003KT 09/M01 A301 RMK A01 T00891014  RH  049%=      5-min Rain = 0
KCL1 180230Z 15003KT 09/M01 A301 RMK A01 T00891014  RH  049%=      5-min Rain = 0
KCL1 180231Z 15003KT 09/M01 A301 RMK A01 T00881014  RH  049%=      5-min Rain = 0
KCL1 180232Z 15003KT 09/M01 A301 RMK A01 T00871014  RH  049%=      5-min Rain = 0
KCL1 180233Z 15004KT 09/M01 A301 RMK A01 T00861014  RH  049%=      5-min Rain = 0
KCL1 180234Z 15004KT 09/M01 A301 RMK A01 T00861013  RH  050%=      5-min Rain = 0
KCL1 180235Z 16004KT 09/M01 A301 RMK A01 T00851014  RH  050%=      5-min Rain = 0
KCL1 180236Z 16004KT 09/M01 A301 RMK A01 T00851013  RH  050%=      5-min Rain = 0
KCL1 180237Z 16004KT 09/M01 A301 RMK A01 T00851013  RH  050%=      5-min Rain = 0
KCL1 180238Z 16004KT 09/M01 A301 RMK A01 T00861013  RH  050%=      5-min Rain = 0
KCL1 180239Z 16004KT 09/M01 A301 RMK A01 T00851014  RH  050%=      5-min Rain = 0
KCL1 180240Z 16004KT 08/M02 A301 RMK A01 T00821016  RH  050%=      5-min Rain = 0
KCL1 180241Z 16003KT 08/M02 A301 RMK A01 T00811015  RH  051%=      5-min Rain = 0
KCL1 180242Z 15003KT 08/M02 A301 RMK A01 T00801015  RH  051%=      5-min Rain = 0
KCL1 180243Z 15003KT 08/M02 A301 RMK A01 T00781016  RH  051%=      5-min Rain = 0
KCL1 180244Z 15003KT 08/M02 A301 RMK A01 T00771016  RH  052%=      5-min Rain = 0
KCL1 180245Z 15003KT 08/M02 A301 RMK A01 T00771015  RH  052%=      5-min Rain = 0
KCL1 180246Z 14003KT 08/M02 A301 RMK A01 T00771015  RH  052%=      5-min Rain = 0
KCL1 180247Z 14003KT 08/M02 A301 RMK A01 T00771015  RH  052%=      5-min Rain = 0
KCL1 180248Z 14003KT 08/M02 A301 RMK A01 T00771015  RH  052%=      5-min Rain = 0
KCL1 180249Z 14003KT 08/M01 A301 RMK A01 T00781014  RH  052%=      5-min Rain = 0
KCL1 180250Z 14003KT 08/M01 A301 RMK A01 T00791014  RH  052%=      5-min Rain = 0
KCL1 180251Z 14003KT 08/M01 A301 RMK A01 T00801013  RH  052%=      5-min Rain = 0
KCL1 180252Z 15003KT 08/M01 A301 RMK A01 T00811013  RH  052%=      5-min Rain = 0
KCL1 180253Z 15003KT 08/M01 A301 RMK A01 T00811013  RH  052%=      5-min Rain = 0
KCL1 180254Z 15003KT 08/M01 A301 RMK A01 T00811013  RH  052%=      5-min Rain = 0
KCL1 180255Z 15003KT 08/M01 A301 RMK A01 T00811013  RH  052%=      5-min Rain = 0
KCL1 180256Z 15003KT 08/M01 A301 RMK A01 T00811013  RH  052%=      5-min Rain = 0
KCL1 180257Z 15003KT 08/M01 A301 RMK A01 T00811013  RH  052%=      5-min Rain = 0
KCL1 180258Z 16003KT 08/M01 A301 RMK A01 T00811012  RH  052%=      5-min Rain = 0
KCL1 180259Z 16004KT 08/M01 A301 RMK A01 T00811012  RH  052%=      5-min Rain = 0
KCL1 180300Z 17004KT 08/M01 A3011 RMK A01 T00831011  RH  052%=      5-min Rain = 0
KCL1 180301Z 17004KT 08/M01 A3011 RMK A01 T00841011  RH  051%=      5-min Rain = 0
KCL1 180302Z 17004KT 08/M01 A3011 RMK A01 T00841011  RH  051%=      5-min Rain = 0
KCL1 180303Z 18004KT 09/M01 A3011 RMK A01 T00851011  RH  051%=      5-min Rain = 0
KCL1 180304Z 18004KT 09/M01 A3011 RMK A01 T00861011  RH  051%=      5-min Rain = 0
KCL1 180305Z 18003KT 09/M01 A3011 RMK A01 T00851011  RH  051%=      5-min Rain = 0
KCL1 180306Z 18003KT 09/M01 A3011 RMK A01 T00851012  RH  051%=      5-min Rain = 0
KCL1 180307Z 18003KT 08/M01 A3011 RMK A01 T00831012  RH  051%=      5-min Rain = 0
KCL1 180308Z 18003KT 08/M01 A3011 RMK A01 T00811012  RH  052%=      5-min Rain = 0
KCL1 180309Z 19004KT 08/M01 A3011 RMK A01 T00801012  RH  052%=      5-min Rain = 0
KCL1 180310Z 18004KT 08/M01 A3011 RMK A01 T00811011  RH  052%=      5-min Rain = 0
KCL1 180311Z 18004KT 08/M01 A3011 RMK A01 T00821011  RH  052%=      5-min Rain = 0
KCL1 180312Z 18004KT 08/M01 A3011 RMK A01 T00831010  RH  052%=      5-min Rain = 0
KCL1 180313Z 18004KT 09/M01 A3011 RMK A01 T00851010  RH  052%=      5-min Rain = 0
KCL1 180314Z 18005KT 09/M01 A3011 RMK A01 T00861009  RH  051%=      5-min Rain = 0
KCL1 180315Z 18005KT 09/M01 A301 RMK A01 T00881009  RH  051%=      5-min Rain = 0
KCL1 180316Z 18005KT 09/M01 A301 RMK A01 T00891009  RH  050%=      5-min Rain = 0
KCL1 180317Z 18005KT 09/M01 A301 RMK A01 T00901009  RH  050%=      5-min Rain = 0
KCL1 180318Z 18005KT 09/M01 A301 RMK A01 T00901009  RH  050%=      5-min Rain = 0
KCL1 180319Z 18005KT 09/M01 A301 RMK A01 T00901009  RH  050%=      5-min Rain = 0
KCL1 180320Z 18005KT 09/M01 A301 RMK A01 T00901009  RH  050%=      5-min Rain = 0
KCL1 180321Z 18004KT 09/M01 A301 RMK A01 T00911009  RH  050%=      5-min Rain = 0
KCL1 180322Z 18004KT 09/M01 A301 RMK A01 T00921009  RH  049%=      5-min Rain = 0
KCL1 180323Z 18004KT 09/M01 A301 RMK A01 T00911009  RH  049%=      5-min Rain = 0
KCL1 180324Z 18004KT 09/M01 A301 RMK A01 T00901009  RH  050%=      5-min Rain = 0
KCL1 180325Z 18004KT 09/M01 A301 RMK A01 T00901009  RH  050%=      5-min Rain = 0
KCL1 180326Z 19004KT 09/M01 A301 RMK A01 T00901009  RH  050%=      5-min Rain = 0
KCL1 180327Z 19003KT 09/M01 A301 RMK A01 T00911008  RH  050%=      5-min Rain = 0
KCL1 180328Z 20003KT 09/M01 A301 RMK A01 T00921008  RH  050%=      5-min Rain = 0
KCL1 180329Z 19003KT 09/M01 A301 RMK A01 T00921008  RH  049%=      5-min Rain = 0
KCL1 180330Z 19004KT 09/M01 A301 RMK A01 T00931008  RH  049%=      5-min Rain = 0
KCL1 180331Z 18004KT 09/M01 A301 RMK A01 T00931008  RH  049%=      5-min Rain = 0
KCL1 180332Z 18005KT 09/M01 A301 RMK A01 T00931008  RH  049%=      5-min Rain = 0
KCL1 180333Z 18006KT 09/M01 A301 RMK A01 T00931008  RH  049%=      5-min Rain = 0
KCL1 180334Z 18006KT 09/M01 A301 RMK A01 T00931007  RH  049%=      5-min Rain = 0
KCL1 180335Z 18006KT 09/M01 A301 RMK A01 T00921008  RH  050%=      5-min Rain = 0
KCL1 180336Z 17006KT 09/M01 A301 RMK A01 T00911008  RH  050%=      5-min Rain = 0
KCL1 180337Z 17006KT 09/M01 A301 RMK A01 T00901008  RH  050%=      5-min Rain = 0
KCL1 180338Z 17005KT 09/M01 A301 RMK A01 T00901008  RH  050%=      5-min Rain = 0
KCL1 180339Z 17005KT 09/M01 A301 RMK A01 T00891008  RH  051%=      5-min Rain = 0
KCL1 180340Z 18005KT 09/M01 A301 RMK A01 T00881008  RH  051%=      5-min Rain = 0
KCL1 180341Z 18004KT 09/M01 A301 RMK A01 T00881008  RH  051%=      5-min Rain = 0
KCL1 180342Z 19003KT 09/M01 A301 RMK A01 T00871008  RH  051%=      5-min Rain = 0
KCL1 180343Z 20003KT 09/M01 A301 RMK A01 T00871007  RH  052%=      5-min Rain = 0
KCL1 180344Z 20003KT 09/M01 A301 RMK A01 T00861007  RH  052%=      5-min Rain = 0
KCL1 180345Z 20003KT 09/M01 A301 RMK A01 T00871007  RH  051%=      5-min Rain = 0
KCL1 180346Z 20003KT 09/M01 A301 RMK A01 T00881007  RH  051%=      5-min Rain = 0
KCL1 180347Z 19003KT 09/M01 A301 RMK A01 T00891006  RH  051%=      5-min Rain = 0
KCL1 180348Z 18004KT 09/M01 A3009 RMK A01 T00891006  RH  051%=      5-min Rain = 0
KCL1 180349Z 17005KT 09/M01 A3009 RMK A01 T00891006  RH  051%=      5-min Rain = 0
KCL1 180350Z 17005KT 09/M01 A3009 RMK A01 T00881006  RH  051%=      5-min Rain = 0
KCL1 180351Z 17005KT 09/M01 A3009 RMK A01 T00871006  RH  052%=      5-min Rain = 0
KCL1 180352Z 17005KT 09/M01 A3009 RMK A01 T00871006  RH  052%=      5-min Rain = 0
KCL1 180353Z 17005KT 09/M01 A3009 RMK A01 T00871005  RH  052%=      5-min Rain = 0
KCL1 180354Z 17005KT 09/M01 A3009 RMK A01 T00861006  RH  053%=      5-min Rain = 0
KCL1 180355Z 17006KT 09/M01 A3009 RMK A01 T00861005  RH  053%=      5-min Rain = 0
KCL1 180356Z 17006KT 09/M01 A3009 RMK A01 T00861005  RH  053%=      5-min Rain = 0
KCL1 180357Z 18006KT 09/M01 A3009 RMK A01 T00861005  RH  053%=      5-min Rain = 0
KCL1 180358Z 18007KT 09/M01 A3008 RMK A01 T00851005  RH  053%=      5-min Rain = 0
KCL1 180359Z 18007KT 09/M01 A3008 RMK A01 T00851005  RH  053%=      5-min Rain = 0
KCL1 180400Z 18007KT 09/M01 A3008 RMK A01 T00851005  RH  053%=      5-min Rain = 0
KCL1 180401Z 18006KT 08/M01 A3008 RMK A01 T00841005  RH  054%=      5-min Rain = 0
KCL1 180402Z 18006KT 08/M00 A3009 RMK A01 T00841004  RH  054%=      5-min Rain = 0
KCL1 180403Z 18006KT 08/M00 A3009 RMK A01 T00841004  RH  054%=      5-min Rain = 0
KCL1 180404Z 19005KT 08/M00 A3009 RMK A01 T00841004  RH  054%=      5-min Rain = 0
KCL1 180405Z 21003KT 08/M00 A3009 RMK A01 T00841004  RH  054%=      5-min Rain = 0
KCL1 180406Z 23003KT 08/M01 A3009 RMK A01 T00831005  RH  054%=      5-min Rain = 0
KCL1 180407Z 22002KT 08/M00 A3009 RMK A01 T00841004  RH  054%=      5-min Rain = 0
KCL1 180408Z 22003KT 09/M00 A3009 RMK A01 T00851004  RH  054%=      5-min Rain = 0
KCL1 180409Z 21003KT 09/M00 A3009 RMK A01 T00861004  RH  053%=      5-min Rain = 0
KCL1 180410Z 22003KT 09/M00 A3009 RMK A01 T00871004  RH  053%=      5-min Rain = 0
KCL1 180411Z 22003KT 09/M00 A3009 RMK A01 T00871004  RH  053%=      5-min Rain = 0
KCL1 180412Z 22003KT 09/M00 A3009 RMK A01 T00881004  RH  053%=      5-min Rain = 0
KCL1 180413Z 21003KT 09/M00 A3009 RMK A01 T00871004  RH  053%=      5-min Rain = 0
KCL1 180414Z 21003KT 09/M01 A3009 RMK A01 T00871005  RH  053%=      5-min Rain = 0
KCL1 180415Z 20003KT 09/M01 A3008 RMK A01 T00871005  RH  052%=      5-min Rain = 0
KCL1 180416Z 20003KT 09/M01 A3008 RMK A01 T00871005  RH  052%=      5-min Rain = 0
KCL1 180417Z 20003KT 09/M01 A3008 RMK A01 T00871005  RH  052%=      5-min Rain = 0
KCL1 180418Z 20004KT 09/M00 A3008 RMK A01 T00881004  RH  052%=      5-min Rain = 0
KCL1 180419Z 20003KT 09/M01 A3008 RMK A01 T00881005  RH  052%=      5-min Rain = 0
KCL1 180420Z 20003KT 09/M00 A3008 RMK A01 T00891004  RH  052%=      5-min Rain = 0
KCL1 180421Z 20004KT 09/M00 A3008 RMK A01 T00891004  RH  052%=      5-min Rain = 0
KCL1 180422Z 20004KT 09/M00 A3008 RMK A01 T00891004  RH  052%=      5-min Rain = 0
KCL1 180423Z 20004KT 09/M00 A3008 RMK A01 T00901004  RH  052%=      5-min Rain = 0
KCL1 180424Z 20004KT 09/M00 A3008 RMK A01 T00901004  RH  052%=      5-min Rain = 0
KCL1 180425Z 20004KT 09/M00 A3008 RMK A01 T00911004  RH  051%=      5-min Rain = 0
KCL1 180426Z 19003KT 09/M00 A3008 RMK A01 T00911004  RH  052%=      5-min Rain = 0
KCL1 180427Z 19003KT 09/M00 A3008 RMK A01 T00901004  RH  052%=      5-min Rain = 0
KCL1 180428Z 19003KT 09/M00 A3008 RMK A01 T00891004  RH  052%=      5-min Rain = 0
KCL1 180429Z 19003KT 09/M00 A3008 RMK A01 T00891004  RH  052%=      5-min Rain = 0
KCL1 180430Z 19003KT 09/M01 A3008 RMK A01 T00891005  RH  052%=      5-min Rain = 0
KCL1 180431Z 19003KT 09/M01 A3008 RMK A01 T00881005  RH  052%=      5-min Rain = 0
KCL1 180432Z 19003KT 09/M01 A3008 RMK A01 T00881005  RH  052%=      5-min Rain = 0
KCL1 180433Z 19003KT 09/M01 A3008 RMK A01 T00871005  RH  053%=      5-min Rain = 0
KCL1 180434Z 20003KT 09/M01 A3008 RMK A01 T00871005  RH  053%=      5-min Rain = 0
KCL1 180435Z 20003KT 09/M00 A3007 RMK A01 T00871004  RH  053%=      5-min Rain = 0
KCL1 180436Z 20003KT 09/M01 A3007 RMK A01 T00871005  RH  053%=      5-min Rain = 0
KCL1 180437Z 20004KT 09/M00 A3007 RMK A01 T00871004  RH  053%=      5-min Rain = 0
KCL1 180438Z 20004KT 09/M00 A3007 RMK A01 T00861004  RH  053%=      5-min Rain = 0
KCL1 180439Z 20004KT 09/M01 A3007 RMK A01 T00861005  RH  053%=      5-min Rain = 0
KCL1 180440Z 20004KT 09/M00 A3007 RMK A01 T00861004  RH  053%=      5-min Rain = 0
KCL1 180441Z 21004KT 09/M00 A3007 RMK A01 T00881004  RH  053%=      5-min Rain = 0
KCL1 180442Z 21004KT 09/M00 A3007 RMK A01 T00881003  RH  053%=      5-min Rain = 0
KCL1 180443Z 21004KT 09/M00 A3007 RMK A01 T00891003  RH  053%=      5-min Rain = 0
KCL1 180444Z 21004KT 09/M00 A3007 RMK A01 T00891003  RH  052%=      5-min Rain = 0
KCL1 180445Z 21004KT 09/M00 A3007 RMK A01 T00891003  RH  052%=      5-min Rain = 0
KCL1 180446Z 21004KT 09/M00 A3007 RMK A01 T00891003  RH  053%=      5-min Rain = 0
KCL1 180447Z 21004KT 09/M00 A3007 RMK A01 T00891003  RH  053%=      5-min Rain = 0
KCL1 180448Z 21004KT 09/M00 A3007 RMK A01 T00881003  RH  053%=      5-min Rain = 0
KCL1 180449Z 21004KT 09/M00 A3007 RMK A01 T00881003  RH  053%=      5-min Rain = 0
KCL1 180450Z 20005KT 09/M00 A3006 RMK A01 T00891003  RH  053%=      5-min Rain = 0
KCL1 180451Z 21005KT 09/M00 A3006 RMK A01 T00891002  RH  053%=      5-min Rain = 0
KCL1 180452Z 21004KT 09/M00 A3006 RMK A01 T00901002  RH  052%=      5-min Rain = 0
KCL1 180453Z 21004KT 09/M00 A3006 RMK A01 T00901002  RH  052%=      5-min Rain = 0
KCL1 180454Z 21004KT 09/M00 A3006 RMK A01 T00901002  RH  052%=      5-min Rain = 0
KCL1 180455Z 21004KT 09/M00 A3006 RMK A01 T00901002  RH  052%=      5-min Rain = 0
KCL1 180456Z 21005KT 09/M00 A3006 RMK A01 T00901002  RH  052%=      5-min Rain = 0
KCL1 180457Z 21005KT 09/M00 A3006 RMK A01 T00901002  RH  052%=      5-min Rain = 0
KCL1 180458Z 21005KT 09/M00 A3006 RMK A01 T00901002  RH  052%=      5-min Rain = 0
KCL1 180459Z 21005KT 09/M00 A3006 RMK A01 T00901002  RH  053%=      5-min Rain = 0
KCL1 180500Z 21005KT 09/M00 A3006 RMK A01 T00891002  RH  053%=      5-min Rain = 0
KCL1 180501Z 21005KT 09/M00 A3006 RMK A01 T00891002  RH  053%=      5-min Rain = 0
KCL1 180502Z 21005KT 09/M00 A3006 RMK A01 T00881002  RH  053%=      5-min Rain = 0
KCL1 180503Z 21005KT 09/M00 A3006 RMK A01 T00881002  RH  053%=      5-min Rain = 0
KCL1 180504Z 21004KT 09/M00 A3006 RMK A01 T00881002  RH  053%=      5-min Rain = 0
KCL1 180505Z 21005KT 09/M00 A3006 RMK A01 T00871003  RH  053%=      5-min Rain = 0
KCL1 180506Z 20005KT 09/M00 A3006 RMK A01 T00871002  RH  054%=      5-min Rain = 0
KCL1 180507Z 21004KT 09/M00 A3006 RMK A01 T00871002  RH  054%=      5-min Rain = 0
KCL1 180508Z 22004KT 09/M00 A3006 RMK A01 T00861003  RH  054%=      5-min Rain = 0
KCL1 180509Z 22004KT 09/M00 A3006 RMK A01 T00861003  RH  054%=      5-min Rain = 0
KCL1 180510Z 22004KT 09/M00 A3006 RMK A01 T00851003  RH  054%=      5-min Rain = 0
KCL1 180511Z 22004KT 09/M00 A3006 RMK A01 T00851003  RH  054%=      5-min Rain = 0
KCL1 180512Z 22005KT 09/M00 A3005 RMK A01 T00851003  RH  054%=      5-min Rain = 0
KCL1 180513Z 21004KT 09/M00 A3005 RMK A01 T00851003  RH  054%=      5-min Rain = 0
KCL1 180514Z 21004KT 09/M00 A3005 RMK A01 T00851002  RH  054%=      5-min Rain = 0
KCL1 180515Z 21005KT 09/M00 A3005 RMK A01 T00851002  RH  054%=      5-min Rain = 0
KCL1 180516Z 22004KT 08/M00 A3005 RMK A01 T00841003  RH  054%=      5-min Rain = 0
KCL1 180517Z 21005KT 08/M00 A3005 RMK A01 T00841003  RH  054%=      5-min Rain = 0
KCL1 180518Z 21005KT 08/M00 A3005 RMK A01 T00841003  RH  054%=      5-min Rain = 0
KCL1 180519Z 21005KT 08/M00 A3005 RMK A01 T00841003  RH  054%=      5-min Rain = 0
KCL1 180520Z 21005KT 08/M00 A3005 RMK A01 T00841003  RH  054%=      5-min Rain = 0
KCL1 180521Z 21005KT 08/M00 A3005 RMK A01 T00841003  RH  054%=      5-min Rain = 0
KCL1 180522Z 21004KT 09/M00 A3005 RMK A01 T00851003  RH  054%=      5-min Rain = 0
KCL1 180523Z 21004KT 08/M00 A3005 RMK A01 T00841003  RH  054%=      5-min Rain = 0
KCL1 180524Z 21004KT 08/M00 A3005 RMK A01 T00831003  RH  054%=      5-min Rain = 0
KCL1 180525Z 21004KT 08/M00 A3005 RMK A01 T00831003  RH  055%=      5-min Rain = 0
KCL1 180526Z 22004KT 08/M00 A3005 RMK A01 T00821003  RH  055%=      5-min Rain = 0
KCL1 180527Z 22005KT 08/M00 A3005 RMK A01 T00811003  RH  055%=      5-min Rain = 0
KCL1 180528Z 22005KT 08/M00 A3005 RMK A01 T00811003  RH  055%=      5-min Rain = 0
KCL1 180529Z 22004KT 08/M00 A3005 RMK A01 T00811003  RH  056%=      5-min Rain = 0
KCL1 180530Z 21004KT 08/M00 A3005 RMK A01 T00811003  RH  056%=      5-min Rain = 0
KCL1 180531Z 22004KT 08/M00 A3005 RMK A01 T00811003  RH  056%=      5-min Rain = 0
KCL1 180532Z 22005KT 08/M00 A3005 RMK A01 T00811003  RH  056%=      5-min Rain = 0
KCL1 180533Z 21006KT 08/M00 A3005 RMK A01 T00801003  RH  056%=      5-min Rain = 0
KCL1 180534Z 22005KT 08/M00 A3005 RMK A01 T00801003  RH  056%=      5-min Rain = 0
KCL1 180535Z 21005KT 08/M00 A3005 RMK A01 T00801003  RH  056%=      5-min Rain = 0
KCL1 180536Z 22005KT 08/M00 A3005 RMK A01 T00801003  RH  056%=      5-min Rain = 0
KCL1 180537Z 21004KT 08/M00 A3005 RMK A01 T00801003  RH  056%=      5-min Rain = 0
KCL1 180538Z 21004KT 08/M00 A3005 RMK A01 T00801003  RH  056%=      5-min Rain = 0
KCL1 180539Z 22003KT 08/M00 A3005 RMK A01 T00791003  RH  056%=      5-min Rain = 0
KCL1 180540Z 23004KT 08/M00 A3005 RMK A01 T00791002  RH  056%=      5-min Rain = 0
KCL1 180541Z 23004KT 08/M00 A3005 RMK A01 T00791003  RH  056%=      5-min Rain = 0
KCL1 180542Z 23004KT 08/M00 A3005 RMK A01 T00791002  RH  056%=      5-min Rain = 0
KCL1 180543Z 22004KT 08/M00 A3005 RMK A01 T00791002  RH  056%=      5-min Rain = 0
KCL1 180544Z 22004KT 08/M00 A3005 RMK A01 T00791003  RH  056%=      5-min Rain = 0
KCL1 180545Z 22005KT 08/M00 A3004 RMK A01 T00781003  RH  057%=      5-min Rain = 0
KCL1 180546Z 22006KT 08/M00 A3004 RMK A01 T00781003  RH  056%=      5-min Rain = 0
KCL1 180547Z 23005KT 08/M00 A3004 RMK A01 T00791003  RH  056%=      5-min Rain = 0
KCL1 180548Z 22005KT 08/M00 A3004 RMK A01 T00791003  RH  056%=      5-min Rain = 0
KCL1 180549Z 22005KT 08/M00 A3004 RMK A01 T00791003  RH  056%=      5-min Rain = 0
KCL1 180550Z 21005KT 08/M00 A3004 RMK A01 T00781003  RH  057%=      5-min Rain = 0
KCL1 180551Z 22006KT 08/M00 A3004 RMK A01 T00781002  RH  057%=      5-min Rain = 0
KCL1 180552Z 22007KT 08/M00 A3004 RMK A01 T00781002  RH  057%=      5-min Rain = 0
KCL1 180553Z 21006KT 08/M00 A3004 RMK A01 T00781002  RH  057%=      5-min Rain = 0
KCL1 180554Z 21006KT 08/M00 A3004 RMK A01 T00781002  RH  057%=      5-min Rain = 0
KCL1 180555Z 21006KT 08/M00 A3004 RMK A01 T00791002  RH  057%=      5-min Rain = 0
KCL1 180556Z 23006KT 08/M00 A3004 RMK A01 T00791002  RH  057%=      5-min Rain = 0
KCL1 180557Z 22006KT 08/M00 A3004 RMK A01 T00791002  RH  057%=      5-min Rain = 0
KCL1 180558Z 21006KT 08/M00 A3004 RMK A01 T00791002  RH  057%=      5-min Rain = 0
KCL1 180559Z 22006KT 08/M00 A3004 RMK A01 T00791002  RH  057%=      5-min Rain = 0

Page generated in 0.0763 seconds.